Wetterdaten: Freitag, 26.10.2018
Datum Zeit Temp. Aussen Temp. o. S. +5cm Feuchte Auss Luftdruck Regen Sonnenschein Regendauer Solar Windben Empfang
26.10.2018 00:00 11,3 C 10,6 C 10,6 C 86 % 1014,0 hPa 0,0 l/m 0 min 0 min 0 W/m 9,7 km/h (2 Bft) 100,00 %
26.10.2018 00:02 11,3 C 10,6 C 10,6 C 86 % 1014,0 hPa 0,0 l/m 0 min 0 min 0 W/m 16,1 km/h (3 Bft) 94,12 %
26.10.2018 00:04 11,3 C 10,6 C 10,6 C 86 % 1013,9 hPa 0,0 l/m 0 min 0 min 0 W/m 6,4 km/h (2 Bft) 100,00 %
26.10.2018 00:07 11,3 C 10,6 C 10,6 C 86 % 1014,0 hPa 0,0 l/m 0 min 0 min 0 W/m 6,4 km/h (2 Bft) 100,00 %
26.10.2018 00:08 11,3 C 10,6 C 10,6 C 86 % 1014,0 hPa 0,0 l/m 0 min 0 min 0 W/m 3,2 km/h (1 Bft) 100,00 %
26.10.2018 00:10 11,3 C 10,6 C 10,6 C 86 % 1014,0 hPa 0,0 l/m 0 min 0 min 0 W/m 6,4 km/h (2 Bft) 100,00 %
26.10.2018 00:12 11,3 C 10,6 C 10,6 C 86 % 1013,9 hPa 0,0 l/m 0 min 0 min 0 W/m 6,4 km/h (2 Bft) 97,83 %
26.10.2018 00:14 11,3 C 10,6 C 10,6 C 86 % 1013,9 hPa 0,0 l/m 0 min 0 min 0 W/m 6,4 km/h (2 Bft) 100,00 %
26.10.2018 00:16 11,2 C 10,6 C 10,6 C 86 % 1013,9 hPa 0,0 l/m 0 min 0 min 0 W/m 9,7 km/h (2 Bft) 100,00 %
26.10.2018 00:18 11,2 C 10,6 C 10,6 C 86 % 1013,8 hPa 0,0 l/m 0 min 0 min 0 W/m 9,7 km/h (2 Bft) 100,00 %
26.10.2018 00:20 11,2 C 10,6 C 10,6 C 86 % 1013,8 hPa 0,0 l/m 0 min 0 min 0 W/m 6,4 km/h (2 Bft) 100,00 %
26.10.2018 00:22 11,2 C 10,6 C 10,0 C 86 % 1013,7 hPa 0,0 l/m 0 min 0 min 0 W/m 6,4 km/h (2 Bft) 100,00 %
26.10.2018 00:24 11,2 C 10,6 C 10,0 C 86 % 1013,7 hPa 0,0 l/m 0 min 0 min 0 W/m 9,7 km/h (2 Bft) 100,00 %
26.10.2018 00:26 11,2 C 10,0 C 10,0 C 86 % 1013,7 hPa 0,0 l/m 0 min 0 min 0 W/m 6,4 km/h (2 Bft) 100,00 %
26.10.2018 00:28 11,2 C 10,0 C 10,0 C 86 % 1013,7 hPa 0,0 l/m 0 min 0 min 0 W/m 6,4 km/h (2 Bft) 100,00 %
26.10.2018 00:30 11,2 C 10,0 C 10,0 C 86 % 1013,7 hPa 0,0 l/m 0 min 0 min 0 W/m 3,2 km/h (1 Bft) 97,87 %
26.10.2018 00:32 11,2 C 10,0 C 10,0 C 86 % 1013,5 hPa 0,0 l/m 0 min 0 min 0 W/m 3,2 km/h (1 Bft) 97,87 %
26.10.2018 00:34 11,1 C 10,0 C 10,0 C 86 % 1013,6 hPa 0,0 l/m 0 min 0 min 0 W/m 3,2 km/h (1 Bft) 100,00 %
26.10.2018 00:38 11,1 C 10,0 C 10,0 C 86 % 1013,6 hPa 0,0 l/m 0 min 0 min 0 W/m 3,2 km/h (1 Bft) 100,00 %
26.10.2018 00:40 11,1 C 10,0 C 10,0 C 87 % 1013,6 hPa 0,0 l/m 0 min 0 min 0 W/m 6,4 km/h (2 Bft) 100,00 %
26.10.2018 00:42 11,1 C 10,0 C 10,0 C 87 % 1013,6 hPa 0,0 l/m 0 min 0 min 0 W/m 6,4 km/h (2 Bft) 100,00 %
26.10.2018 00:44 11,1 C 10,0 C 10,0 C 87 % 1013,6 hPa 0,0 l/m 0 min 0 min 0 W/m 3,2 km/h (1 Bft) 100,00 %
26.10.2018 00:46 11,1 C 10,0 C 10,0 C 87 % 1013,5 hPa 0,0 l/m 0 min 0 min 0 W/m 6,4 km/h (2 Bft) 100,00 %
26.10.2018 00:48 11,0 C 10,0 C 10,0 C 87 % 1013,4 hPa 0,0 l/m 0 min 0 min 0 W/m 3,2 km/h (1 Bft) 100,00 %
26.10.2018 00:50 11,0 C 10,0 C 10,0 C 87 % 1013,4 hPa 0,0 l/m 0 min 0 min 0 W/m 6,4 km/h (2 Bft) 100,00 %
26.10.2018 00:52 11,0 C 10,0 C 10,0 C 87 % 1013,4 hPa 0,0 l/m 0 min 0 min 0 W/m 6,4 km/h (2 Bft) 98,11 %
26.10.2018 00:54 11,0 C 10,0 C 10,0 C 87 % 1013,4 hPa 0,0 l/m 0 min 0 min 0 W/m 6,4 km/h (2 Bft) 97,87 %
26.10.2018 00:56 10,9 C 10,0 C 10,0 C 87 % 1013,4 hPa 0,0 l/m 0 min 0 min 0 W/m 3,2 km/h (1 Bft) 97,87 %
26.10.2018 00:58 10,9 C 10,0 C 10,0 C 87 % 1013,3 hPa 0,0 l/m 0 min 0 min 0 W/m 6,4 km/h (2 Bft) 97,87 %
26.10.2018 01:00 10,9 C 10,0 C 10,0 C 87 % 1013,2 hPa 0,0 l/m 0 min 0 min 0 W/m 6,4 km/h (2 Bft) 95,74 %
26.10.2018 01:02 10,9 C 10,6 C 10,0 C 87 % 1013,2 hPa 0,0 l/m 0 min 0 min 0 W/m 3,2 km/h (1 Bft) 95,65 %
26.10.2018 01:04 10,9 C 10,6 C 10,0 C 88 % 1013,2 hPa 0,0 l/m 0 min 0 min 0 W/m 6,4 km/h (2 Bft) 97,87 %
26.10.2018 01:08 10,9 C 10,0 C 10,0 C 87 % 1013,1 hPa 0,0 l/m 0 min 0 min 0 W/m 3,2 km/h (1 Bft) 97,87 %
26.10.2018 01:10 10,9 C 10,0 C 10,0 C 87 % 1013,1 hPa 0,0 l/m 0 min 0 min 0 W/m 3,2 km/h (1 Bft) 97,87 %
26.10.2018 01:12 10,9 C 10,0 C 10,0 C 87 % 1013,0 hPa 0,0 l/m 0 min 0 min 0 W/m 3,2 km/h (1 Bft) 97,87 %
26.10.2018 01:14 10,9 C 10,0 C 10,0 C 88 % 1013,0 hPa 0,0 l/m 0 min 0 min 0 W/m 3,2 km/h (1 Bft) 97,87 %
26.10.2018 01:16 10,9 C 10,6 C 10,0 C 88 % 1013,0 hPa 0,0 l/m 0 min 0 min 0 W/m 6,4 km/h (2 Bft) 97,56 %
26.10.2018 01:18 10,9 C 10,6 C 10,0 C 88 % 1013,0 hPa 0,0 l/m 0 min 0 min 0 W/m 6,4 km/h (2 Bft) 97,87 %
26.10.2018 01:20 10,9 C 10,6 C 10,0 C 88 % 1013,0 hPa 0,0 l/m 0 min 0 min 0 W/m 6,4 km/h (2 Bft) 95,74 %
26.10.2018 01:22 10,9 C 10,6 C 10,0 C 88 % 1012,9 hPa 0,0 l/m 0 min 0 min 0 W/m 6,4 km/h (2 Bft) 97,83 %
26.10.2018 01:24 10,9 C 10,6 C 10,0 C 88 % 1012,9 hPa 0,0 l/m 0 min 0 min 0 W/m 6,4 km/h (2 Bft) 97,87 %
26.10.2018 01:26 10,9 C 10,6 C 10,0 C 88 % 1012,8 hPa 0,0 l/m 0 min 0 min 0 W/m 6,4 km/h (2 Bft) 97,87 %
26.10.2018 01:28 10,9 C 10,6 C 10,0 C 88 % 1012,9 hPa 0,0 l/m 0 min 0 min 0 W/m 3,2 km/h (1 Bft) 97,87 %
26.10.2018 01:30 10,9 C 10,6 C 10,0 C 88 % 1012,9 hPa 0,0 l/m 0 min 0 min 0 W/m 6,4 km/h (2 Bft) 97,87 %
26.10.2018 01:32 10,9 C 10,6 C 10,0 C 88 % 1012,8 hPa 0,0 l/m 0 min 0 min 0 W/m 6,4 km/h (2 Bft) 97,87 %
26.10.2018 01:34 10,8 C 10,6 C 10,0 C 88 % 1012,8 hPa 0,0 l/m 0 min 0 min 0 W/m 9,7 km/h (2 Bft) 97,83 %
26.10.2018 01:38 10,9 C 10,6 C 10,0 C 88 % 1012,8 hPa 0,0 l/m 0 min 0 min 0 W/m 6,4 km/h (2 Bft) 96,81 %
26.10.2018 01:40 10,8 C 10,0 C 10,0 C 88 % 1012,7 hPa 0,0 l/m 0 min 0 min 0 W/m 3,2 km/h (1 Bft) 97,87 %
26.10.2018 01:42 10,9 C 10,0 C 10,0 C 88 % 1012,7 hPa 0,0 l/m 0 min 0 min 0 W/m 6,4 km/h (2 Bft) 97,87 %
26.10.2018 01:44 10,8 C 10,0 C 10,0 C 88 % 1012,7 hPa 0,0 l/m 0 min 0 min 0 W/m 6,4 km/h (2 Bft) 95,74 %
26.10.2018 01:46 10,8 C 10,0 C 10,0 C 88 % 1012,8 hPa 0,0 l/m 0 min 0 min 0 W/m 3,2 km/h (1 Bft) 97,83 %
26.10.2018 01:48 10,8 C 10,0 C 10,0 C 88 % 1012,7 hPa 0,0 l/m 0 min 0 min 0 W/m 3,2 km/h (1 Bft) 100,00 %
26.10.2018 01:50 10,8 C 10,0 C 10,0 C 88 % 1012,7 hPa 0,0 l/m 0 min 0 min 0 W/m 9,7 km/h (2 Bft) 100,00 %
26.10.2018 01:52 10,8 C 10,0 C 10,0 C 88 % 1012,7 hPa 0,0 l/m 0 min 0 min 0 W/m 6,4 km/h (2 Bft) 95,74 %
26.10.2018 01:54 10,8 C 10,0 C 10,0 C 88 % 1012,7 hPa 0,0 l/m 0 min 0 min 0 W/m 6,4 km/h (2 Bft) 95,74 %
26.10.2018 01:56 10,8 C 10,0 C 10,0 C 88 % 1012,6 hPa 0,0 l/m 0 min 0 min 0 W/m 3,2 km/h (1 Bft) 97,87 %
26.10.2018 01:58 10,8 C 10,0 C 10,0 C 88 % 1012,6 hPa 0,0 l/m 0 min 0 min 0 W/m 0,0 km/h (0 Bft) 97,83 %
26.10.2018 02:00 10,8 C 10,0 C 10,0 C 88 % 1012,6 hPa 0,0 l/m 0 min 0 min 0 W/m 0,0 km/h (0 Bft) 95,74 %
26.10.2018 02:02 10,8 C 10,0 C 10,0 C 88 % 1012,6 hPa 0,0 l/m 0 min 0 min 0 W/m 3,2 km/h (1 Bft) 93,62 %
26.10.2018 02:04 10,8 C 10,0 C 10,0 C 88 % 1012,5 hPa 0,0 l/m 0 min 0 min 0 W/m 9,7 km/h (2 Bft) 95,74 %
26.10.2018 02:08 10,8 C 10,0 C 10,0 C 88 % 1012,5 hPa 0,0 l/m 0 min 0 min 0 W/m 9,7 km/h (2 Bft) 94,00 %
26.10.2018 02:10 10,8 C 10,0 C 10,0 C 88 % 1012,5 hPa 0,0 l/m 0 min 0 min 0 W/m 6,4 km/h (2 Bft) 95,74 %
26.10.2018 02:12 10,8 C 10,0 C 10,0 C 88 % 1012,5 hPa 0,0 l/m 0 min 0 min 0 W/m 6,4 km/h (2 Bft) 91,30 %
26.10.2018 02:14 10,8 C 10,0 C 10,0 C 88 % 1012,5 hPa 0,0 l/m 0 min 0 min 0 W/m 9,7 km/h (2 Bft) 95,74 %
26.10.2018 02:16 10,8 C 10,0 C 10,0 C 88 % 1012,5 hPa 0,0 l/m 0 min 0 min 0 W/m 6,4 km/h (2 Bft) 95,24 %
26.10.2018 02:18 10,8 C 10,0 C 10,0 C 88 % 1012,5 hPa 0,0 l/m 0 min 0 min 0 W/m 3,2 km/h (1 Bft) 95,74 %
26.10.2018 02:20 10,8 C 10,0 C 10,0 C 88 % 1012,4 hPa 0,0 l/m 0 min 0 min 0 W/m 6,4 km/h (2 Bft) 95,74 %
26.10.2018 02:22 10,8 C 10,0 C 10,0 C 88 % 1012,4 hPa 0,0 l/m 0 min 0 min 0 W/m 6,4 km/h (2 Bft) 95,65 %
26.10.2018 02:24 10,8 C 10,0 C 10,0 C 88 % 1012,3 hPa 0,0 l/m 0 min 0 min 0 W/m 6,4 km/h (2 Bft) 95,74 %
26.10.2018 02:26 10,8 C 10,0 C 10,0 C 88 % 1012,3 hPa 0,0 l/m 0 min 0 min 0 W/m 6,4 km/h (2 Bft) 95,74 %
26.10.2018 02:28 10,8 C 10,0 C 10,0 C 88 % 1012,3 hPa 0,0 l/m 0 min 0 min 0 W/m 6,4 km/h (2 Bft) 95,74 %
26.10.2018 02:30 10,8 C 10,0 C 10,0 C 88 % 1012,3 hPa 0,0 l/m 0 min 0 min 0 W/m 3,2 km/h (1 Bft) 93,62 %
26.10.2018 02:32 10,8 C 10,0 C 10,0 C 88 % 1012,3 hPa 0,0 l/m 0 min 0 min 0 W/m 3,2 km/h (1 Bft) 95,65 %
26.10.2018 02:34 10,8 C 10,0 C 10,0 C 88 % 1012,3 hPa 0,0 l/m 0 min 0 min 0 W/m 6,4 km/h (2 Bft) 95,74 %
26.10.2018 02:38 10,8 C 10,0 C 10,0 C 88 % 1012,3 hPa 0,0 l/m 0 min 0 min 0 W/m 6,4 km/h (2 Bft) 94,68 %
26.10.2018 02:40 10,8 C 10,0 C 10,0 C 88 % 1012,2 hPa 0,0 l/m 0 min 0 min 0 W/m 9,7 km/h (2 Bft) 95,74 %
26.10.2018 02:42 10,8 C 10,0 C 10,0 C 88 % 1012,2 hPa 0,0 l/m 0 min 0 min 0 W/m 3,2 km/h (1 Bft) 97,87 %
26.10.2018 02:44 10,8 C 10,0 C 10,0 C 88 % 1012,2 hPa 0,0 l/m 0 min 0 min 0 W/m 6,4 km/h (2 Bft) 95,65 %
26.10.2018 02:46 10,8 C 10,0 C 10,0 C 88 % 1012,0 hPa 0,0 l/m 0 min 0 min 0 W/m 9,7 km/h (2 Bft) 95,74 %
26.10.2018 02:48 10,7 C 10,0 C 10,0 C 88 % 1012,1 hPa 0,0 l/m 0 min 0 min 0 W/m 9,7 km/h (2 Bft) 97,87 %
26.10.2018 02:50 10,7 C 10,0 C 10,0 C 88 % 1012,0 hPa 0,0 l/m 0 min 0 min 0 W/m 9,7 km/h (2 Bft) 95,74 %
26.10.2018 02:52 10,7 C 10,0 C 10,0 C 88 % 1012,0 hPa 0,0 l/m 0 min 0 min 0 W/m 6,4 km/h (2 Bft) 95,74 %
26.10.2018 02:54 10,7 C 10,0 C 10,0 C 88 % 1012,0 hPa 0,0 l/m 0 min 0 min 0 W/m 6,4 km/h (2 Bft) 97,87 %
26.10.2018 02:56 10,7 C 10,0 C 10,0 C 88 % 1012,0 hPa 0,0 l/m 0 min 0 min 0 W/m 6,4 km/h (2 Bft) 97,83 %
26.10.2018 02:58 10,7 C 10,0 C 10,0 C 88 % 1012,0 hPa 0,0 l/m 0 min 0 min 0 W/m 9,7 km/h (2 Bft) 97,87 %
26.10.2018 03:00 10,7 C 10,0 C 10,0 C 88 % 1012,0 hPa 0,0 l/m 0 min 0 min 0 W/m 3,2 km/h (1 Bft) 97,87 %
26.10.2018 03:02 10,7 C 10,0 C 10,0 C 88 % 1011,9 hPa 0,0 l/m 0 min 0 min 0 W/m 3,2 km/h (1 Bft) 97,87 %
26.10.2018 03:04 10,7 C 10,0 C 10,0 C 88 % 1011,9 hPa 0,0 l/m 0 min 0 min 0 W/m 6,4 km/h (2 Bft) 100,00 %
26.10.2018 03:08 10,7 C 10,0 C 10,0 C 88 % 1011,9 hPa 0,0 l/m 0 min 0 min 0 W/m 3,2 km/h (1 Bft) 99,00 %
26.10.2018 03:10 10,7 C 10,0 C 10,0 C 88 % 1011,9 hPa 0,0 l/m 0 min 0 min 0 W/m 6,4 km/h (2 Bft) 97,87 %
26.10.2018 03:12 10,7 C 10,0 C 10,0 C 88 % 1011,8 hPa 0,0 l/m 0 min 0 min 0 W/m 0,0 km/h (0 Bft) 97,83 %
26.10.2018 03:14 10,7 C 10,0 C 10,0 C 88 % 1011,9 hPa 0,0 l/m 0 min 0 min 0 W/m 9,7 km/h (2 Bft) 100,00 %
26.10.2018 03:16 10,7 C 10,0 C 10,0 C 88 % 1011,9 hPa 0,0 l/m 0 min 0 min 0 W/m 6,4 km/h (2 Bft) 100,00 %
26.10.2018 03:18 10,7 C 10,0 C 10,0 C 88 % 1011,9 hPa 0,0 l/m 0 min 0 min 0 W/m 3,2 km/h (1 Bft) 95,24 %
26.10.2018 03:20 10,7 C 10,0 C 10,0 C 88 % 1011,7 hPa 0,0 l/m 0 min 0 min 0 W/m 6,4 km/h (2 Bft) 100,00 %
26.10.2018 03:22 10,7 C 10,0 C 10,0 C 88 % 1011,6 hPa 0,0 l/m 0 min 0 min 0 W/m 0,0 km/h (0 Bft) 100,00 %
26.10.2018 03:24 10,7 C 10,0 C 10,0 C 88 % 1011,6 hPa 0,0 l/m 0 min 0 min 0 W/m 0,0 km/h (0 Bft) 97,87 %
26.10.2018 03:26 10,7 C 10,0 C 10,0 C 88 % 1011,6 hPa 0,0 l/m 0 min 0 min 0 W/m 0,0 km/h (0 Bft) 100,00 %
26.10.2018 03:28 10,7 C 10,0 C 10,0 C 88 % 1011,5 hPa 0,0 l/m 0 min 0 min 0 W/m 0,0 km/h (0 Bft) 100,00 %
26.10.2018 03:30 10,7 C 10,0 C 10,0 C 88 % 1011,5 hPa 0,0 l/m 0 min 0 min 0 W/m 0,0 km/h (0 Bft) 100,00 %
26.10.2018 03:32 10,7 C 10,0 C 10,0 C 88 % 1011,5 hPa 0,0 l/m 0 min 0 min 0 W/m 0,0 km/h (0 Bft) 100,00 %
26.10.2018 03:34 10,7 C 10,0 C 10,0 C 88 % 1011,5 hPa 0,0 l/m 0 min 0 min 0 W/m 0,0 km/h (0 Bft) 100,00 %
26.10.2018 03:38 10,7 C 10,0 C 10,0 C 88 % 1011,3 hPa 0,0 l/m 0 min 0 min 0 W/m 0,0 km/h (0 Bft) 98,89 %
26.10.2018 03:40 10,7 C 10,0 C 10,0 C 88 % 1011,3 hPa 0,0 l/m 0 min 0 min 0 W/m 6,4 km/h (2 Bft) 95,83 %
26.10.2018 03:42 10,6 C 10,0 C 10,0 C 88 % 1011,3 hPa 0,0 l/m 0 min 0 min 0 W/m 6,4 km/h (2 Bft) 95,83 %
26.10.2018 03:44 10,6 C 10,0 C 10,0 C 88 % 1011,3 hPa 0,0 l/m 0 min 0 min 0 W/m 6,4 km/h (2 Bft) 97,92 %
26.10.2018 03:46 10,6 C 10,0 C 10,0 C 88 % 1011,3 hPa 0,0 l/m 0 min 0 min 0 W/m 6,4 km/h (2 Bft) 95,74 %
26.10.2018 03:48 10,6 C 10,0 C 10,0 C 88 % 1011,2 hPa 0,0 l/m 0 min 0 min 0 W/m 6,4 km/h (2 Bft) 97,87 %
26.10.2018 03:50 10,6 C 10,0 C 10,0 C 88 % 1011,3 hPa 0,0 l/m 0 min 0 min 0 W/m 3,2 km/h (1 Bft) 97,87 %
26.10.2018 03:52 10,6 C 10,0 C 10,0 C 88 % 1011,2 hPa 0,0 l/m 0 min 0 min 0 W/m 6,4 km/h (2 Bft) 97,87 %
26.10.2018 03:54 10,6 C 10,0 C 10,0 C 88 % 1011,2 hPa 0,0 l/m 0 min 0 min 0 W/m 9,7 km/h (2 Bft) 95,74 %
26.10.2018 03:56 10,6 C 10,0 C 10,0 C 88 % 1011,1 hPa 0,0 l/m 0 min 0 min 0 W/m 9,7 km/h (2 Bft) 95,74 %
26.10.2018 03:58 10,6 C 10,0 C 10,0 C 88 % 1011,1 hPa 0,0 l/m 0 min 0 min 0 W/m 6,4 km/h (2 Bft) 97,56 %
26.10.2018 04:00 10,6 C 10,0 C 10,0 C 88 % 1011,1 hPa 0,0 l/m 0 min 0 min 0 W/m 6,4 km/h (2 Bft) 98,00 %
26.10.2018 04:02 10,6 C 10,0 C 10,0 C 88 % 1011,1 hPa 0,0 l/m 0 min 0 min 0 W/m 6,4 km/h (2 Bft) 97,30 %
26.10.2018 04:04 10,6 C 10,0 C 10,0 C 88 % 1011,0 hPa 0,0 l/m 0 min 0 min 0 W/m 9,7 km/h (2 Bft) 95,74 %
26.10.2018 04:08 10,6 C 10,0 C 10,0 C 88 % 1011,0 hPa 0,0 l/m 0 min 0 min 0 W/m 6,4 km/h (2 Bft) 97,89 %
26.10.2018 04:10 10,6 C 10,0 C 10,0 C 88 % 1011,1 hPa 0,0 l/m 0 min 0 min 0 W/m 9,7 km/h (2 Bft) 95,65 %
26.10.2018 04:12 10,6 C 10,0 C 10,0 C 87 % 1011,0 hPa 0,0 l/m 0 min 0 min 0 W/m 6,4 km/h (2 Bft) 93,62 %
26.10.2018 04:14 10,5 C 10,0 C 10,0 C 87 % 1011,0 hPa 0,0 l/m 0 min 0 min 0 W/m 6,4 km/h (2 Bft) 97,87 %
26.10.2018 04:16 10,5 C 10,0 C 10,0 C 87 % 1011,0 hPa 0,0 l/m 0 min 0 min 0 W/m 9,7 km/h (2 Bft) 97,87 %
26.10.2018 04:18 10,5 C 10,0 C 10,0 C 87 % 1011,0 hPa 0,0 l/m 0 min 0 min 0 W/m 12,9 km/h (3 Bft) 97,87 %
26.10.2018 04:20 10,5 C 10,0 C 10,0 C 87 % 1010,9 hPa 0,0 l/m 0 min 0 min 0 W/m 6,4 km/h (2 Bft) 97,87 %
26.10.2018 04:22 10,5 C 10,0 C 10,0 C 87 % 1010,8 hPa 0,0 l/m 0 min 0 min 0 W/m 6,4 km/h (2 Bft) 97,83 %
26.10.2018 04:24 10,5 C 10,0 C 10,0 C 87 % 1010,8 hPa 0,0 l/m 0 min 0 min 0 W/m 12,9 km/h (3 Bft) 97,87 %
26.10.2018 04:26 10,5 C 10,0 C 10,0 C 87 % 1010,8 hPa 0,0 l/m 0 min 0 min 0 W/m 9,7 km/h (2 Bft) 97,87 %
26.10.2018 04:28 10,4 C 10,0 C 10,0 C 87 % 1010,8 hPa 0,0 l/m 0 min 0 min 0 W/m 6,4 km/h (2 Bft) 95,74 %
26.10.2018 04:30 10,4 C 10,0 C 10,0 C 87 % 1010,8 hPa 0,0 l/m 0 min 0 min 0 W/m 6,4 km/h (2 Bft) 95,74 %
26.10.2018 04:32 10,4 C 10,0 C 10,0 C 87 % 1010,8 hPa 0,0 l/m 0 min 0 min 0 W/m 6,4 km/h (2 Bft) 95,65 %
26.10.2018 04:34 10,4 C 10,0 C 10,0 C 87 % 1010,8 hPa 0,0 l/m 0 min 0 min 0 W/m 9,7 km/h (2 Bft) 97,87 %
26.10.2018 04:38 10,4 C 10,0 C 10,0 C 87 % 1010,8 hPa 0,0 l/m 0 min 0 min 0 W/m 6,4 km/h (2 Bft) 97,87 %
26.10.2018 04:40 10,4 C 10,0 C 10,0 C 87 % 1010,8 hPa 0,0 l/m 0 min 0 min 0 W/m 6,4 km/h (2 Bft) 97,87 %
26.10.2018 04:42 10,4 C 10,0 C 10,0 C 87 % 1010,8 hPa 0,0 l/m 0 min 0 min 0 W/m 6,4 km/h (2 Bft) 97,87 %
26.10.2018 04:44 10,4 C 10,0 C 10,0 C 87 % 1010,8 hPa 0,0 l/m 0 min 0 min 0 W/m 9,7 km/h (2 Bft) 97,83 %
26.10.2018 04:46 10,4 C 10,0 C 10,0 C 87 % 1010,8 hPa 0,0 l/m 0 min 0 min 0 W/m 6,4 km/h (2 Bft) 100,00 %
26.10.2018 04:48 10,4 C 10,0 C 10,0 C 87 % 1010,7 hPa 0,0 l/m 0 min 0 min 0 W/m 6,4 km/h (2 Bft) 97,87 %
26.10.2018 04:50 10,4 C 10,0 C 10,0 C 87 % 1010,7 hPa 0,0 l/m 0 min 0 min 0 W/m 6,4 km/h (2 Bft) 97,87 %
26.10.2018 04:52 10,4 C 10,0 C 10,0 C 87 % 1010,7 hPa 0,0 l/m 0 min 0 min 0 W/m 6,4 km/h (2 Bft) 95,74 %
26.10.2018 04:54 10,4 C 10,0 C 10,0 C 87 % 1010,6 hPa 0,0 l/m 0 min 0 min 0 W/m 12,9 km/h (3 Bft) 97,87 %
26.10.2018 04:56 10,4 C 10,0 C 10,0 C 87 % 1010,6 hPa 0,0 l/m 0 min 0 min 0 W/m 9,7 km/h (2 Bft) 95,65 %
26.10.2018 04:58 10,4 C 10,0 C 9,4 C 87 % 1010,6 hPa 0,0 l/m 0 min 0 min 0 W/m 6,4 km/h (2 Bft) 97,87 %
26.10.2018 05:00 10,4 C 10,0 C 10,0 C 87 % 1010,7 hPa 0,0 l/m 0 min 0 min 0 W/m 9,7 km/h (2 Bft) 97,87 %
26.10.2018 05:02 10,4 C 10,0 C 10,0 C 87 % 1010,6 hPa 0,0 l/m 0 min 0 min 0 W/m 12,9 km/h (3 Bft) 97,87 %
26.10.2018 05:04 10,4 C 10,0 C 9,4 C 87 % 1010,6 hPa 0,0 l/m 0 min 0 min 0 W/m 6,4 km/h (2 Bft) 97,87 %
26.10.2018 05:05 10,4 C 10,0 C 9,4 C 87 % 1010,6 hPa 0,0 l/m 0 min 0 min 0 W/m 12,9 km/h (3 Bft) 100,00 %
26.10.2018 05:10 10,4 C 10,0 C 9,4 C 87 % 1010,5 hPa 0,0 l/m 0 min 0 min 0 W/m 12,9 km/h (3 Bft) 100,00 %
26.10.2018 05:12 10,4 C 10,0 C 9,4 C 87 % 1010,5 hPa 0,0 l/m 0 min 0 min 0 W/m 6,4 km/h (2 Bft) 97,14 %
26.10.2018 05:14 10,4 C 10,0 C 9,4 C 87 % 1010,5 hPa 0,0 l/m 0 min 0 min 0 W/m 6,4 km/h (2 Bft) 95,74 %
26.10.2018 05:16 10,4 C 10,0 C 9,4 C 87 % 1010,5 hPa 0,0 l/m 0 min 0 min 0 W/m 9,7 km/h (2 Bft) 100,00 %
26.10.2018 05:18 10,4 C 9,4 C 9,4 C 87 % 1010,4 hPa 0,0 l/m 0 min 0 min 0 W/m 9,7 km/h (2 Bft) 100,00 %
26.10.2018 05:20 10,3 C 9,4 C 9,4 C 87 % 1010,4 hPa 0,0 l/m 0 min 0 min 0 W/m 6,4 km/h (2 Bft) 98,31 %
26.10.2018 05:22 10,3 C 10,0 C 9,4 C 87 % 1010,3 hPa 0,0 l/m 0 min 0 min 0 W/m 12,9 km/h (3 Bft) 97,87 %
26.10.2018 05:24 10,3 C 9,4 C 9,4 C 87 % 1010,4 hPa 0,0 l/m 0 min 0 min 0 W/m 9,7 km/h (2 Bft) 97,83 %
26.10.2018 05:26 10,3 C 9,4 C 9,4 C 87 % 1010,2 hPa 0,0 l/m 0 min 0 min 0 W/m 12,9 km/h (3 Bft) 97,87 %
26.10.2018 05:28 10,3 C 9,4 C 9,4 C 87 % 1010,2 hPa 0,0 l/m 0 min 0 min 0 W/m 9,7 km/h (2 Bft) 95,74 %
26.10.2018 05:30 10,3 C 9,4 C 9,4 C 87 % 1010,3 hPa 0,0 l/m 0 min 0 min 0 W/m 6,4 km/h (2 Bft) 95,74 %
26.10.2018 05:32 10,3 C 9,4 C 9,4 C 87 % 1010,2 hPa 0,0 l/m 0 min 0 min 0 W/m 16,1 km/h (3 Bft) 93,62 %
26.10.2018 05:34 10,3 C 9,4 C 9,4 C 87 % 1010,0 hPa 0,0 l/m 0 min 0 min 0 W/m 12,9 km/h (3 Bft) 100,00 %
26.10.2018 05:38 10,3 C 9,4 C 9,4 C 87 % 1009,9 hPa 0,0 l/m 0 min 0 min 0 W/m 6,4 km/h (2 Bft) 100,00 %
26.10.2018 05:40 10,3 C 9,4 C 9,4 C 87 % 1009,9 hPa 0,0 l/m 0 min 0 min 0 W/m 6,4 km/h (2 Bft) 97,87 %
26.10.2018 05:42 10,3 C 9,4 C 9,4 C 87 % 1009,9 hPa 0,0 l/m 0 min 0 min 0 W/m 6,4 km/h (2 Bft) 100,00 %
26.10.2018 05:44 10,3 C 9,4 C 9,4 C 87 % 1009,9 hPa 0,0 l/m 0 min 0 min 0 W/m 12,9 km/h (3 Bft) 100,00 %
26.10.2018 05:46 10,2 C 9,4 C 9,4 C 87 % 1009,8 hPa 0,0 l/m 0 min 0 min 0 W/m 12,9 km/h (3 Bft) 100,00 %
26.10.2018 05:48 10,2 C 9,4 C 9,4 C 87 % 1009,7 hPa 0,0 l/m 0 min 0 min 0 W/m 9,7 km/h (2 Bft) 100,00 %
26.10.2018 05:50 10,2 C 9,4 C 9,4 C 87 % 1009,8 hPa 0,0 l/m 0 min 0 min 0 W/m 9,7 km/h (2 Bft) 97,87 %
26.10.2018 05:52 10,2 C 9,4 C 9,4 C 87 % 1009,8 hPa 0,0 l/m 0 min 0 min 0 W/m 6,4 km/h (2 Bft) 97,87 %
26.10.2018 05:54 10,2 C 9,4 C 9,4 C 87 % 1009,8 hPa 0,0 l/m 0 min 0 min 0 W/m 6,4 km/h (2 Bft) 97,14 %
26.10.2018 05:56 10,2 C 9,4 C 9,4 C 87 % 1009,8 hPa 0,0 l/m 0 min 0 min 0 W/m 12,9 km/h (3 Bft) 98,31 %
26.10.2018 05:58 10,2 C 9,4 C 9,4 C 87 % 1009,8 hPa 0,0 l/m 0 min 0 min 0 W/m 9,7 km/h (2 Bft) 97,87 %
26.10.2018 06:00 10,2 C 9,4 C 9,4 C 87 % 1009,8 hPa 0,0 l/m 0 min 0 min 0 W/m 16,1 km/h (3 Bft) 97,14 %
26.10.2018 06:02 10,1 C 9,4 C 9,4 C 87 % 1009,9 hPa 0,0 l/m 0 min 0 min 0 W/m 6,4 km/h (2 Bft) 96,55 %
26.10.2018 06:04 10,1 C 9,4 C 9,4 C 88 % 1009,8 hPa 0,0 l/m 0 min 0 min 0 W/m 9,7 km/h (2 Bft) 97,87 %
26.10.2018 06:08 10,1 C 9,4 C 9,4 C 87 % 1009,7 hPa 0,0 l/m 0 min 0 min 0 W/m 12,9 km/h (3 Bft) 97,56 %
26.10.2018 06:10 10,1 C 9,4 C 9,4 C 88 % 1009,7 hPa 0,0 l/m 0 min 0 min 0 W/m 12,9 km/h (3 Bft) 97,87 %
26.10.2018 06:12 10,1 C 9,4 C 9,4 C 88 % 1009,7 hPa 0,0 l/m 0 min 0 min 0 W/m 9,7 km/h (2 Bft) 97,87 %
26.10.2018 06:14 10,1 C 9,4 C 9,4 C 88 % 1009,7 hPa 0,0 l/m 0 min 0 min 0 W/m 6,4 km/h (2 Bft) 97,83 %
26.10.2018 06:16 10,1 C 9,4 C 9,4 C 88 % 1009,7 hPa 0,0 l/m 0 min 0 min 0 W/m 6,4 km/h (2 Bft) 97,87 %
26.10.2018 06:18 10,1 C 9,4 C 9,4 C 88 % 1009,5 hPa 0,0 l/m 0 min 0 min 0 W/m 6,4 km/h (2 Bft) 97,87 %
26.10.2018 06:20 10,1 C 9,4 C 9,4 C 88 % 1009,6 hPa 0,0 l/m 0 min 0 min 0 W/m 6,4 km/h (2 Bft) 96,61 %
26.10.2018 06:22 10,1 C 9,4 C 9,4 C 88 % 1009,6 hPa 0,0 l/m 0 min 0 min 0 W/m 12,9 km/h (3 Bft) 100,00 %
26.10.2018 06:24 10,1 C 9,4 C 9,4 C 88 % 1009,6 hPa 0,0 l/m 0 min 0 min 0 W/m 19,3 km/h (3 Bft) 95,74 %
26.10.2018 06:26 10,1 C 9,4 C 9,4 C 88 % 1009,6 hPa 0,0 l/m 0 min 0 min 0 W/m 16,1 km/h (3 Bft) 97,87 %
26.10.2018 06:28 10,0 C 9,4 C 9,4 C 88 % 1009,5 hPa 0,0 l/m 0 min 0 min 0 W/m 6,4 km/h (2 Bft) 97,83 %
26.10.2018 06:30 10,0 C 9,4 C 9,4 C 88 % 1009,4 hPa 0,0 l/m 0 min 0 min 0 W/m 9,7 km/h (2 Bft) 97,87 %
26.10.2018 06:32 10,0 C 9,4 C 9,4 C 88 % 1009,2 hPa 0,0 l/m 0 min 0 min 0 W/m 9,7 km/h (2 Bft) 97,87 %
26.10.2018 06:34 10,0 C 9,4 C 9,4 C 88 % 1009,2 hPa 0,0 l/m 0 min 0 min 0 W/m 9,7 km/h (2 Bft) 95,74 %
26.10.2018 06:38 10,0 C 9,4 C 9,4 C 88 % 1009,3 hPa 0,0 l/m 0 min 0 min 0 W/m 9,7 km/h (2 Bft) 96,81 %
26.10.2018 06:40 9,9 C 9,4 C 9,4 C 88 % 1009,2 hPa 0,0 l/m 0 min 0 min 0 W/m 9,7 km/h (2 Bft) 95,65 %
26.10.2018 06:42 9,9 C 9,4 C 9,4 C 88 % 1009,2 hPa 0,0 l/m 0 min 0 min 0 W/m 6,4 km/h (2 Bft) 95,74 %
26.10.2018 06:44 9,9 C 9,4 C 9,4 C 88 % 1009,2 hPa 0,0 l/m 0 min 0 min 0 W/m 9,7 km/h (2 Bft) 95,74 %
26.10.2018 06:46 9,9 C 9,4 C 9,4 C 88 % 1009,1 hPa 0,0 l/m 0 min 0 min 0 W/m 6,4 km/h (2 Bft) 95,74 %
26.10.2018 06:48 9,9 C 9,4 C 9,4 C 88 % 1009,1 hPa 0,0 l/m 0 min 0 min 0 W/m 6,4 km/h (2 Bft) 95,74 %
26.10.2018 06:50 9,9 C 9,4 C 9,4 C 88 % 1009,1 hPa 0,0 l/m 0 min 0 min 0 W/m 16,1 km/h (3 Bft) 94,83 %
26.10.2018 06:52 9,9 C 9,4 C 9,4 C 88 % 1009,1 hPa 0,0 l/m 0 min 0 min 0 W/m 9,7 km/h (2 Bft) 93,62 %
26.10.2018 06:54 9,9 C 9,4 C 9,4 C 88 % 1009,0 hPa 0,0 l/m 0 min 0 min 0 W/m 6,4 km/h (2 Bft) 94,29 %
26.10.2018 06:56 9,9 C 9,4 C 9,4 C 88 % 1009,0 hPa 0,0 l/m 0 min 0 min 0 W/m 12,9 km/h (3 Bft) 97,87 %
26.10.2018 06:58 9,9 C 9,4 C 9,4 C 88 % 1009,0 hPa 0,0 l/m 0 min 0 min 0 W/m 9,7 km/h (2 Bft) 97,87 %
26.10.2018 07:00 9,8 C 9,4 C 9,4 C 88 % 1008,9 hPa 0,0 l/m 0 min 0 min 0 W/m 6,4 km/h (2 Bft) 97,87 %
26.10.2018 07:02 9,8 C 9,4 C 9,4 C 88 % 1008,9 hPa 0,0 l/m 0 min 0 min 0 W/m 9,7 km/h (2 Bft) 98,00 %
26.10.2018 07:04 9,8 C 9,4 C 9,4 C 88 % 1008,8 hPa 0,0 l/m 0 min 0 min 0 W/m 12,9 km/h (3 Bft) 97,87 %
26.10.2018 07:08 9,8 C 9,4 C 9,4 C 88 % 1008,8 hPa 0,0 l/m 0 min 0 min 0 W/m 12,9 km/h (3 Bft) 96,88 %
26.10.2018 07:10 9,8 C 9,4 C 9,4 C 88 % 1008,8 hPa 0,0 l/m 0 min 0 min 0 W/m 12,9 km/h (3 Bft) 95,65 %
26.10.2018 07:12 9,8 C 9,4 C 9,4 C 88 % 1008,8 hPa 0,0 l/m 0 min 0 min 0 W/m 12,9 km/h (3 Bft) 97,87 %
26.10.2018 07:14 9,8 C 9,4 C 9,4 C 88 % 1008,7 hPa 0,0 l/m 0 min 0 min 0 W/m 6,4 km/h (2 Bft) 97,87 %
26.10.2018 07:16 9,8 C 8,9 C 9,4 C 88 % 1008,6 hPa 0,0 l/m 0 min 0 min 0 W/m 6,4 km/h (2 Bft) 97,87 %
26.10.2018 07:18 9,8 C 8,9 C 8,9 C 88 % 1008,6 hPa 0,0 l/m 0 min 0 min 0 W/m 6,4 km/h (2 Bft) 97,87 %
26.10.2018 07:20 9,8 C 8,9 C 8,9 C 88 % 1008,5 hPa 0,0 l/m 0 min 0 min 0 W/m 9,7 km/h (2 Bft) 96,55 %
26.10.2018 07:22 9,8 C 8,9 C 8,9 C 88 % 1008,5 hPa 0,0 l/m 0 min 0 min 0 W/m 6,4 km/h (2 Bft) 97,14 %
26.10.2018 07:24 9,7 C 8,9 C 8,9 C 88 % 1008,4 hPa 0,0 l/m 0 min 0 min 0 W/m 6,4 km/h (2 Bft) 97,87 %
26.10.2018 07:26 9,7 C 8,9 C 8,9 C 88 % 1008,3 hPa 0,0 l/m 0 min 0 min 0 W/m 9,7 km/h (2 Bft) 95,74 %
26.10.2018 07:28 9,7 C 8,9 C 8,9 C 88 % 1008,4 hPa 0,0 l/m 0 min 0 min 0 W/m 6,4 km/h (2 Bft) 95,74 %
26.10.2018 07:30 9,7 C 8,9 C 8,9 C 88 % 1008,3 hPa 0,0 l/m 0 min 0 min 0 W/m 9,7 km/h (2 Bft) 100,00 %
26.10.2018 07:32 9,7 C 8,9 C 8,9 C 88 % 1008,3 hPa 0,0 l/m 0 min 0 min 0 W/m 6,4 km/h (2 Bft) 100,00 %
26.10.2018 07:34 9,7 C 8,9 C 8,9 C 88 % 1008,3 hPa 0,0 l/m 0 min 0 min 0 W/m 12,9 km/h (3 Bft) 95,65 %
26.10.2018 07:38 9,6 C 8,9 C 8,9 C 88 % 1008,3 hPa 0,0 l/m 0 min 0 min 0 W/m 12,9 km/h (3 Bft) 97,87 %
26.10.2018 07:40 9,6 C 8,9 C 8,9 C 88 % 1008,2 hPa 0,0 l/m 0 min 0 min 0 W/m 12,9 km/h (3 Bft) 97,87 %
26.10.2018 07:42 9,6 C 8,9 C 8,9 C 88 % 1008,2 hPa 0,0 l/m 0 min 0 min 0 W/m 12,9 km/h (3 Bft) 97,87 %
26.10.2018 07:44 9,6 C 8,9 C 8,9 C 88 % 1008,2 hPa 0,0 l/m 0 min 0 min 0 W/m 9,7 km/h (2 Bft) 97,87 %
26.10.2018 07:46 9,6 C 8,9 C 8,9 C 88 % 1008,2 hPa 0,0 l/m 0 min 0 min 0 W/m 9,7 km/h (2 Bft) 97,83 %
26.10.2018 07:48 9,6 C 8,9 C 8,9 C 88 % 1008,3 hPa 0,0 l/m 0 min 0 min 0 W/m 9,7 km/h (2 Bft) 95,74 %
26.10.2018 07:50 9,5 C 8,9 C 8,9 C 88 % 1008,3 hPa 0,0 l/m 0 min 0 min 0 W/m 9,7 km/h (2 Bft) 98,31 %
26.10.2018 07:52 9,5 C 8,9 C 8,9 C 88 % 1008,3 hPa 0,0 l/m 0 min 0 min 0 W/m 12,9 km/h (3 Bft) 97,14 %
26.10.2018 07:54 9,5 C 8,9 C 8,9 C 88 % 1008,3 hPa 0,0 l/m 0 min 0 min 0 W/m 12,9 km/h (3 Bft) 98,00 %
26.10.2018 07:56 9,5 C 8,9 C 8,9 C 88 % 1008,2 hPa 0,0 l/m 0 min 0 min 0 W/m 6,4 km/h (2 Bft) 95,65 %
26.10.2018 07:58 9,4 C 8,9 C 8,9 C 88 % 1008,3 hPa 0,0 l/m 0 min 0 min 0 W/m 9,7 km/h (2 Bft) 97,87 %
26.10.2018 08:00 9,4 C 8,9 C 8,9 C 88 % 1008,1 hPa 0,0 l/m 0 min 0 min 0 W/m 12,9 km/h (3 Bft) 97,87 %
26.10.2018 08:02 9,4 C 8,9 C 8,9 C 88 % 1008,1 hPa 0,0 l/m 0 min 0 min 0 W/m 16,1 km/h (3 Bft) 97,87 %
26.10.2018 08:04 9,4 C 8,9 C 8,9 C 88 % 1008,0 hPa 0,0 l/m 0 min 0 min 0 W/m 9,7 km/h (2 Bft) 97,87 %
26.10.2018 08:08 9,4 C 8,9 C 8,9 C 89 % 1008,1 hPa 0,0 l/m 0 min 0 min 0 W/m 12,9 km/h (3 Bft) 97,85 %
26.10.2018 08:10 9,4 C 8,9 C 8,9 C 89 % 1008,0 hPa 0,0 l/m 0 min 0 min 0 W/m 9,7 km/h (2 Bft) 97,87 %
26.10.2018 08:12 9,4 C 8,9 C 8,9 C 89 % 1008,0 hPa 0,0 l/m 0 min 0 min 0 W/m 9,7 km/h (2 Bft) 97,87 %
26.10.2018 08:14 9,4 C 8,9 C 8,9 C 89 % 1008,1 hPa 0,0 l/m 0 min 0 min 0 W/m 6,4 km/h (2 Bft) 97,87 %
26.10.2018 08:16 9,4 C 8,9 C 8,9 C 89 % 1008,1 hPa 0,0 l/m 0 min 0 min 0 W/m 9,7 km/h (2 Bft) 95,74 %
26.10.2018 08:18 9,4 C 8,9 C 8,9 C 89 % 1008,2 hPa 0,0 l/m 0 min 0 min 0 W/m 12,9 km/h (3 Bft) 97,87 %
26.10.2018 08:20 9,4 C 8,9 C 8,9 C 89 % 1008,3 hPa 0,0 l/m 0 min 0 min 0 W/m 12,9 km/h (3 Bft) 95,65 %
26.10.2018 08:22 9,4 C 8,9 C 8,9 C 89 % 1008,3 hPa 0,0 l/m 0 min 0 min 0 W/m 9,7 km/h (2 Bft) 95,74 %
26.10.2018 08:24 9,4 C 8,9 C 8,9 C 89 % 1008,4 hPa 0,0 l/m 0 min 0 min 3 W/m 6,4 km/h (2 Bft) 100,00 %
26.10.2018 08:26 9,4 C 8,9 C 8,9 C 89 % 1008,3 hPa 0,0 l/m 0 min 0 min 5 W/m 9,7 km/h (2 Bft) 97,87 %
26.10.2018 08:28 9,4 C 8,9 C 8,9 C 89 % 1008,2 hPa 0,0 l/m 0 min 0 min 6 W/m 9,7 km/h (2 Bft) 100,00 %
26.10.2018 08:30 9,4 C 8,9 C 8,9 C 89 % 1008,2 hPa 0,0 l/m 0 min 0 min 8 W/m 6,4 km/h (2 Bft) 100,00 %
26.10.2018 08:32 9,5 C 8,9 C 8,9 C 89 % 1008,0 hPa 0,0 l/m 0 min 0 min 10 W/m 6,4 km/h (2 Bft) 100,00 %
26.10.2018 08:34 9,5 C 8,9 C 8,9 C 89 % 1007,9 hPa 0,0 l/m 0 min 0 min 11 W/m 9,7 km/h (2 Bft) 100,00 %
26.10.2018 08:38 9,5 C 8,9 C 8,9 C 89 % 1008,2 hPa 0,0 l/m 0 min 0 min 11 W/m 9,7 km/h (2 Bft) 100,00 %
26.10.2018 08:40 9,5 C 8,9 C 8,9 C 89 % 1008,2 hPa 0,0 l/m 0 min 0 min 11 W/m 6,4 km/h (2 Bft) 95,74 %
26.10.2018 08:42 9,5 C 9,4 C 8,9 C 89 % 1008,2 hPa 0,0 l/m 0 min 0 min 11 W/m 6,4 km/h (2 Bft) 97,87 %
26.10.2018 08:44 9,6 C 9,4 C 8,9 C 89 % 1008,3 hPa 0,0 l/m 0 min 0 min 13 W/m 9,7 km/h (2 Bft) 100,00 %
26.10.2018 08:46 9,6 C 9,4 C 8,9 C 89 % 1008,2 hPa 0,0 l/m 0 min 0 min 15 W/m 12,9 km/h (3 Bft) 100,00 %
26.10.2018 08:48 9,6 C 9,4 C 8,9 C 89 % 1008,2 hPa 0,0 l/m 0 min 0 min 16 W/m 9,7 km/h (2 Bft) 100,00 %
26.10.2018 08:50 9,6 C 9,4 C 8,9 C 89 % 1008,3 hPa 0,0 l/m 0 min 0 min 13 W/m 9,7 km/h (2 Bft) 100,00 %
26.10.2018 08:52 9,6 C 9,4 C 8,9 C 89 % 1008,3 hPa 0,0 l/m 0 min 0 min 12 W/m 9,7 km/h (2 Bft) 100,00 %
26.10.2018 08:54 9,6 C 9,4 C 8,9 C 89 % 1008,3 hPa 0,0 l/m 0 min 0 min 13 W/m 9,7 km/h (2 Bft) 100,00 %
26.10.2018 08:56 9,6 C 9,4 C 8,9 C 89 % 1008,3 hPa 0,0 l/m 0 min 0 min 14 W/m 6,4 km/h (2 Bft) 100,00 %
26.10.2018 08:58 9,6 C 9,4 C 8,9 C 89 % 1008,3 hPa 0,0 l/m 0 min 0 min 14 W/m 9,7 km/h (2 Bft) 100,00 %
26.10.2018 09:00 9,6 C 9,4 C 8,9 C 89 % 1008,3 hPa 0,0 l/m 0 min 0 min 12 W/m 9,7 km/h (2 Bft) 97,83 %
26.10.2018 09:02 9,7 C 9,4 C 9,4 C 89 % 1008,2 hPa 0,0 l/m 0 min 0 min 15 W/m 6,4 km/h (2 Bft) 100,00 %
26.10.2018 09:04 9,7 C 9,4 C 9,4 C 89 % 1008,1 hPa 0,0 l/m 0 min 0 min 18 W/m 6,4 km/h (2 Bft) 97,87 %
26.10.2018 09:08 9,7 C 9,4 C 9,4 C 89 % 1008,2 hPa 0,0 l/m 0 min 0 min 16 W/m 12,9 km/h (3 Bft) 100,00 %
26.10.2018 09:10 9,7 C 9,4 C 9,4 C 89 % 1008,2 hPa 0,0 l/m 0 min 0 min 12 W/m 16,1 km/h (3 Bft) 97,87 %
26.10.2018 09:12 9,7 C 9,4 C 9,4 C 89 % 1008,2 hPa 0,0 l/m 0 min 0 min 13 W/m 9,7 km/h (2 Bft) 100,00 %
26.10.2018 09:14 9,7 C 9,4 C 9,4 C 89 % 1008,2 hPa 0,0 l/m 0 min 0 min 14 W/m 12,9 km/h (3 Bft) 100,00 %
26.10.2018 09:16 9,7 C 9,4 C 9,4 C 89 % 1008,1 hPa 0,0 l/m 0 min 0 min 16 W/m 9,7 km/h (2 Bft) 100,00 %
26.10.2018 09:18 9,7 C 9,4 C 9,4 C 89 % 1008,2 hPa 0,0 l/m 0 min 0 min 21 W/m 6,4 km/h (2 Bft) 100,00 %
26.10.2018 09:20 9,8 C 9,4 C 9,4 C 89 % 1008,1 hPa 0,0 l/m 0 min 0 min 28 W/m 9,7 km/h (2 Bft) 100,00 %
26.10.2018 09:22 9,8 C 9,4 C 9,4 C 89 % 1008,2 hPa 0,0 l/m 0 min 0 min 30 W/m 9,7 km/h (2 Bft) 100,00 %
26.10.2018 09:24 9,8 C 9,4 C 9,4 C 89 % 1008,2 hPa 0,0 l/m 0 min 0 min 24 W/m 9,7 km/h (2 Bft) 97,87 %
26.10.2018 09:26 9,8 C 9,4 C 9,4 C 89 % 1008,1 hPa 0,0 l/m 0 min 0 min 23 W/m 9,7 km/h (2 Bft) 93,62 %
26.10.2018 09:28 9,8 C 9,4 C 9,4 C 89 % 1008,1 hPa 0,0 l/m 0 min 0 min 30 W/m 12,9 km/h (3 Bft) 95,74 %
26.10.2018 09:30 9,8 C 9,4 C 9,4 C 89 % 1007,9 hPa 0,0 l/m 0 min 0 min 27 W/m 9,7 km/h (2 Bft) 97,87 %
26.10.2018 09:32 9,8 C 9,4 C 9,4 C 89 % 1007,9 hPa 0,0 l/m 0 min 0 min 27 W/m 6,4 km/h (2 Bft) 97,96 %
26.10.2018 09:34 9,8 C 9,4 C 9,4 C 89 % 1007,9 hPa 0,0 l/m 0 min 0 min 27 W/m 12,9 km/h (3 Bft) 95,74 %
26.10.2018 09:38 9,8 C 9,4 C 9,4 C 89 % 1007,9 hPa 0,0 l/m 0 min 0 min 20 W/m 16,1 km/h (3 Bft) 97,87 %
26.10.2018 09:40 9,8 C 9,4 C 9,4 C 89 % 1007,9 hPa 0,0 l/m 0 min 0 min 16 W/m 9,7 km/h (2 Bft) 95,74 %
26.10.2018 09:42 9,8 C 9,4 C 9,4 C 89 % 1007,7 hPa 0,0 l/m 0 min 0 min 17 W/m 6,4 km/h (2 Bft) 91,49 %
26.10.2018 09:44 9,8 C 9,4 C 9,4 C 89 % 1007,7 hPa 0,0 l/m 0 min 0 min 20 W/m 9,7 km/h (2 Bft) 95,65 %
26.10.2018 09:46 9,8 C 9,4 C 9,4 C 89 % 1007,7 hPa 0,0 l/m 0 min 0 min 24 W/m 9,7 km/h (2 Bft) 93,48 %
26.10.2018 09:48 9,8 C 9,4 C 9,4 C 89 % 1007,7 hPa 0,0 l/m 0 min 0 min 23 W/m 12,9 km/h (3 Bft) 95,74 %
26.10.2018 09:50 9,8 C 9,4 C 9,4 C 89 % 1007,7 hPa 0,0 l/m 0 min 0 min 20 W/m 6,4 km/h (2 Bft) 95,74 %
26.10.2018 09:52 9,8 C 9,4 C 9,4 C 89 % 1007,7 hPa 0,0 l/m 0 min 0 min 17 W/m 6,4 km/h (2 Bft) 89,36 %
26.10.2018 09:54 9,8 C 9,4 C 9,4 C 89 % 1007,7 hPa 0,0 l/m 0 min 0 min 16 W/m 9,7 km/h (2 Bft) 95,74 %
26.10.2018 09:56 9,8 C 9,4 C 8,9 C 89 % 1007,7 hPa 0,0 l/m 0 min 0 min 16 W/m 9,7 km/h (2 Bft) 95,65 %
26.10.2018 09:58 9,8 C 9,4 C 9,4 C 89 % 1007,8 hPa 0,0 l/m 0 min 0 min 18 W/m 9,7 km/h (2 Bft) 95,74 %
26.10.2018 10:00 9,8 C 9,4 C 9,4 C 89 % 1007,8 hPa 0,0 l/m 0 min 0 min 23 W/m 9,7 km/h (2 Bft) 93,62 %
26.10.2018 10:02 9,8 C 9,4 C 9,4 C 89 % 1007,8 hPa 0,0 l/m 0 min 0 min 30 W/m 12,9 km/h (3 Bft) 97,87 %
26.10.2018 10:04 9,8 C 9,4 C 9,4 C 89 % 1007,8 hPa 0,0 l/m 0 min 0 min 32 W/m 6,4 km/h (2 Bft) 95,74 %
26.10.2018 10:08 9,8 C 9,4 C 9,4 C 89 % 1007,8 hPa 0,0 l/m 0 min 0 min 31 W/m 12,9 km/h (3 Bft) 94,62 %
26.10.2018 10:10 9,8 C 9,4 C 9,4 C 89 % 1007,7 hPa 0,0 l/m 0 min 0 min 28 W/m 9,7 km/h (2 Bft) 97,87 %
26.10.2018 10:12 9,8 C 9,4 C 9,4 C 89 % 1007,7 hPa 0,0 l/m 0 min 0 min 28 W/m 12,9 km/h (3 Bft) 95,74 %
26.10.2018 10:14 9,8 C 9,4 C 9,4 C 89 % 1007,6 hPa 0,0 l/m 0 min 0 min 30 W/m 6,4 km/h (2 Bft) 97,87 %
26.10.2018 10:16 9,8 C 9,4 C 9,4 C 89 % 1007,6 hPa 0,0 l/m 0 min 0 min 32 W/m 16,1 km/h (3 Bft) 93,62 %
26.10.2018 10:18 9,8 C 9,4 C 9,4 C 89 % 1007,5 hPa 0,0 l/m 0 min 0 min 32 W/m 9,7 km/h (2 Bft) 97,87 %
26.10.2018 10:20 9,8 C 9,4 C 9,4 C 89 % 1007,5 hPa 0,0 l/m 0 min 0 min 32 W/m 6,4 km/h (2 Bft) 97,83 %
26.10.2018 10:22 9,8 C 9,4 C 9,4 C 89 % 1007,5 hPa 0,0 l/m 0 min 0 min 32 W/m 9,7 km/h (2 Bft) 95,74 %
26.10.2018 10:24 9,8 C 9,4 C 9,4 C 89 % 1007,5 hPa 0,0 l/m 0 min 0 min 34 W/m 9,7 km/h (2 Bft) 95,74 %
26.10.2018 10:26 9,9 C 9,4 C 9,4 C 89 % 1007,5 hPa 0,0 l/m 0 min 0 min 37 W/m 6,4 km/h (2 Bft) 95,74 %
26.10.2018 10:28 9,8 C 9,4 C 9,4 C 89 % 1007,4 hPa 0,0 l/m 0 min 0 min 41 W/m 6,4 km/h (2 Bft) 93,62 %
26.10.2018 10:30 9,9 C 9,4 C 9,4 C 89 % 1007,4 hPa 0,0 l/m 0 min 0 min 47 W/m 9,7 km/h (2 Bft) 95,65 %
26.10.2018 10:32 9,9 C 9,4 C 9,4 C 89 % 1007,5 hPa 0,0 l/m 0 min 0 min 49 W/m 12,9 km/h (3 Bft) 95,74 %
26.10.2018 10:34 9,9 C 9,4 C 9,4 C 89 % 1007,4 hPa 0,0 l/m 0 min 0 min 54 W/m 9,7 km/h (2 Bft) 93,62 %
26.10.2018 10:38 9,9 C 10,0 C 9,4 C 89 % 1007,4 hPa 0,0 l/m 0 min 0 min 70 W/m 12,9 km/h (3 Bft) 95,74 %
26.10.2018 10:40 9,9 C 10,0 C 9,4 C 89 % 1007,4 hPa 0,0 l/m 0 min 0 min 86 W/m 16,1 km/h (3 Bft) 95,74 %
26.10.2018 10:42 9,9 C 10,0 C 9,4 C 89 % 1007,3 hPa 0,0 l/m 0 min 0 min 90 W/m 22,5 km/h (4 Bft) 97,83 %
26.10.2018 10:44 9,9 C 10,0 C 9,4 C 88 % 1007,3 hPa 0,0 l/m 0 min 0 min 88 W/m 12,9 km/h (3 Bft) 95,74 %
26.10.2018 10:46 10,0 C 10,0 C 9,4 C 88 % 1007,3 hPa 0,0 l/m 0 min 0 min 83 W/m 19,3 km/h (3 Bft) 97,92 %
26.10.2018 10:48 10,0 C 10,0 C 9,4 C 88 % 1007,2 hPa 0,0 l/m 0 min 0 min 78 W/m 12,9 km/h (3 Bft) 95,74 %
26.10.2018 10:50 10,0 C 10,0 C 9,4 C 88 % 1007,1 hPa 0,0 l/m 0 min 0 min 72 W/m 12,9 km/h (3 Bft) 95,74 %
26.10.2018 10:52 10,0 C 10,0 C 9,4 C 88 % 1007,1 hPa 0,0 l/m 0 min 0 min 62 W/m 16,1 km/h (3 Bft) 95,83 %
26.10.2018 10:54 10,1 C 10,0 C 9,4 C 88 % 1007,1 hPa 0,0 l/m 0 min 0 min 54 W/m 12,9 km/h (3 Bft) 95,74 %
26.10.2018 10:56 10,1 C 10,0 C 9,4 C 88 % 1007,1 hPa 0,0 l/m 0 min 0 min 47 W/m 19,3 km/h (3 Bft) 97,87 %
26.10.2018 10:58 10,1 C 10,0 C 9,4 C 87 % 1007,0 hPa 0,0 l/m 0 min 0 min 62 W/m 19,3 km/h (3 Bft) 97,87 %
26.10.2018 11:00 10,1 C 10,0 C 9,4 C 87 % 1006,9 hPa 0,0 l/m 0 min 0 min 82 W/m 16,1 km/h (3 Bft) 97,87 %
26.10.2018 11:02 10,1 C 10,0 C 9,4 C 87 % 1007,0 hPa 0,0 l/m 0 min 0 min 85 W/m 19,3 km/h (3 Bft) 95,74 %
26.10.2018 11:04 10,1 C 10,0 C 9,4 C 87 % 1007,1 hPa 0,0 l/m 0 min 0 min 83 W/m 16,1 km/h (3 Bft) 93,48 %
26.10.2018 11:08 10,1 C 10,0 C 9,4 C 87 % 1006,9 hPa 0,0 l/m 0 min 0 min 99 W/m 12,9 km/h (3 Bft) 97,89 %
26.10.2018 11:10 10,2 C 10,0 C 9,4 C 87 % 1006,9 hPa 0,0 l/m 0 min 0 min 109 W/m 16,1 km/h (3 Bft) 97,87 %
26.10.2018 11:12 10,2 C 10,0 C 9,4 C 86 % 1006,8 hPa 0,0 l/m 0 min 0 min 112 W/m 19,3 km/h (3 Bft) 97,87 %
26.10.2018 11:14 10,2 C 10,0 C 9,4 C 86 % 1006,9 hPa 0,0 l/m 0 min 0 min 113 W/m 19,3 km/h (3 Bft) 97,83 %
26.10.2018 11:16 10,2 C 10,0 C 9,4 C 86 % 1006,7 hPa 0,0 l/m 0 min 0 min 113 W/m 16,1 km/h (3 Bft) 100,00 %
26.10.2018 11:18 10,3 C 10,6 C 10,0 C 86 % 1006,6 hPa 0,0 l/m 0 min 0 min 115 W/m 9,7 km/h (2 Bft) 100,00 %
26.10.2018 11:20 10,3 C 10,6 C 10,0 C 86 % 1006,6 hPa 0,0 l/m 0 min 0 min 111 W/m 12,9 km/h (3 Bft) 100,00 %
26.10.2018 11:22 10,3 C 10,6 C 10,0 C 86 % 1006,7 hPa 0,0 l/m 0 min 0 min 115 W/m 12,9 km/h (3 Bft) 97,87 %
26.10.2018 11:24 10,3 C 10,6 C 10,0 C 86 % 1006,7 hPa 0,0 l/m 0 min 0 min 105 W/m 16,1 km/h (3 Bft) 100,00 %
26.10.2018 11:26 10,3 C 10,0 C 9,4 C 85 % 1006,8 hPa 0,0 l/m 0 min 0 min 87 W/m 22,5 km/h (4 Bft) 100,00 %
26.10.2018 11:28 10,3 C 10,0 C 9,4 C 85 % 1006,7 hPa 0,0 l/m 0 min 0 min 97 W/m 12,9 km/h (3 Bft) 100,00 %
26.10.2018 11:30 10,4 C 10,6 C 10,0 C 84 % 1006,7 hPa 0,0 l/m 0 min 0 min 129 W/m 12,9 km/h (3 Bft) 100,00 %
26.10.2018 11:32 10,4 C 10,6 C 10,0 C 84 % 1006,7 hPa 0,0 l/m 0 min 0 min 115 W/m 12,9 km/h (3 Bft) 100,00 %
26.10.2018 11:34 10,4 C 10,6 C 10,0 C 84 % 1006,7 hPa 0,0 l/m 0 min 0 min 93 W/m 12,9 km/h (3 Bft) 100,00 %
26.10.2018 11:38 10,4 C 10,6 C 10,0 C 84 % 1006,7 hPa 0,0 l/m 0 min 0 min 126 W/m 19,3 km/h (3 Bft) 98,94 %
26.10.2018 11:40 10,4 C 10,6 C 10,0 C 84 % 1006,6 hPa 0,0 l/m 0 min 0 min 123 W/m 12,9 km/h (3 Bft) 97,87 %
26.10.2018 11:42 10,5 C 10,6 C 10,0 C 84 % 1006,5 hPa 0,0 l/m 0 min 0 min 134 W/m 16,1 km/h (3 Bft) 100,00 %
26.10.2018 11:44 10,5 C 10,6 C 10,0 C 83 % 1006,5 hPa 0,0 l/m 0 min 0 min 134 W/m 22,5 km/h (4 Bft) 100,00 %
26.10.2018 11:46 10,5 C 10,6 C 10,0 C 83 % 1006,4 hPa 0,0 l/m 0 min 0 min 118 W/m 16,1 km/h (3 Bft) 100,00 %
26.10.2018 11:48 10,6 C 10,6 C 10,0 C 83 % 1006,4 hPa 0,0 l/m 0 min 0 min 106 W/m 9,7 km/h (2 Bft) 100,00 %
26.10.2018 11:50 10,6 C 10,6 C 10,0 C 83 % 1006,5 hPa 0,0 l/m 0 min 0 min 109 W/m 12,9 km/h (3 Bft) 100,00 %
26.10.2018 11:52 10,6 C 10,6 C 10,0 C 83 % 1006,4 hPa 0,0 l/m 0 min 0 min 96 W/m 12,9 km/h (3 Bft) 100,00 %
26.10.2018 11:54 10,6 C 10,6 C 10,0 C 83 % 1006,4 hPa 0,0 l/m 0 min 0 min 94 W/m 12,9 km/h (3 Bft) 100,00 %
26.10.2018 11:56 10,6 C 10,6 C 10,0 C 83 % 1006,3 hPa 0,0 l/m 0 min 0 min 103 W/m 12,9 km/h (3 Bft) 100,00 %
26.10.2018 11:58 10,6 C 10,6 C 10,0 C 83 % 1006,3 hPa 0,0 l/m 0 min 0 min 125 W/m 9,7 km/h (2 Bft) 100,00 %
26.10.2018 12:00 10,7 C 10,6 C 10,0 C 84 % 1006,3 hPa 0,0 l/m 0 min 0 min 137 W/m 9,7 km/h (2 Bft) 100,00 %
26.10.2018 12:02 10,7 C 10,6 C 10,0 C 83 % 1006,3 hPa 0,0 l/m 0 min 0 min 156 W/m 22,5 km/h (4 Bft) 97,87 %
26.10.2018 12:04 10,7 C 10,6 C 10,0 C 83 % 1006,2 hPa 0,0 l/m 0 min 0 min 148 W/m 12,9 km/h (3 Bft) 100,00 %
26.10.2018 12:08 10,7 C 10,6 C 10,0 C 83 % 1006,1 hPa 0,0 l/m 0 min 0 min 149 W/m 25,7 km/h (4 Bft) 96,81 %
26.10.2018 12:10 10,7 C 11,1 C 10,0 C 83 % 1006,2 hPa 0,0 l/m 0 min 0 min 155 W/m 12,9 km/h (3 Bft) 93,62 %
26.10.2018 12:12 10,8 C 11,1 C 10,0 C 83 % 1006,1 hPa 0,0 l/m 0 min 0 min 178 W/m 12,9 km/h (3 Bft) 97,83 %
26.10.2018 12:14 10,8 C 11,1 C 10,0 C 83 % 1006,2 hPa 0,0 l/m 0 min 0 min 205 W/m 12,9 km/h (3 Bft) 97,87 %
26.10.2018 12:16 10,8 C 11,7 C 10,6 C 83 % 1006,2 hPa 0,0 l/m 0 min 0 min 201 W/m 9,7 km/h (2 Bft) 95,74 %
26.10.2018 12:18 10,9 C 11,1 C 10,6 C 83 % 1006,3 hPa 0,0 l/m 0 min 0 min 188 W/m 16,1 km/h (3 Bft) 97,87 %
26.10.2018 12:20 10,9 C 11,1 C 10,6 C 83 % 1006,2 hPa 0,2 l/m 0 min 0 min 173 W/m 19,3 km/h (3 Bft) 97,87 %
26.10.2018 12:22 10,9 C 11,1 C 10,6 C 83 % 1006,1 hPa 0,0 l/m 0 min 0 min 151 W/m 9,7 km/h (2 Bft) 97,87 %
26.10.2018 12:24 11,0 C 11,1 C 10,6 C 83 % 1006,1 hPa 0,0 l/m 0 min 0 min 141 W/m 16,1 km/h (3 Bft) 97,83 %
26.10.2018 12:26 11,0 C 11,1 C 10,6 C 83 % 1006,1 hPa 0,0 l/m 0 min 0 min 122 W/m 16,1 km/h (3 Bft) 97,87 %
26.10.2018 12:28 11,0 C 11,1 C 10,0 C 83 % 1006,1 hPa 0,0 l/m 0 min 0 min 103 W/m 16,1 km/h (3 Bft) 97,87 %
26.10.2018 12:30 11,1 C 10,6 C 10,0 C 83 % 1005,9 hPa 0,0 l/m 0 min 0 min 107 W/m 9,7 km/h (2 Bft) 97,87 %
26.10.2018 12:32 11,0 C 10,6 C 10,0 C 83 % 1005,9 hPa 0,0 l/m 0 min 0 min 122 W/m 12,9 km/h (3 Bft) 97,87 %
26.10.2018 12:34 11,1 C 11,1 C 10,0 C 83 % 1005,9 hPa 0,0 l/m 0 min 0 min 126 W/m 9,7 km/h (2 Bft) 93,62 %
26.10.2018 12:38 11,1 C 11,1 C 10,0 C 83 % 1005,8 hPa 0,0 l/m 0 min 0 min 130 W/m 12,9 km/h (3 Bft) 97,85 %
26.10.2018 12:40 11,1 C 11,1 C 10,0 C 83 % 1005,6 hPa 0,0 l/m 0 min 0 min 143 W/m 9,7 km/h (2 Bft) 97,87 %
26.10.2018 12:42 11,1 C 11,1 C 10,0 C 82 % 1005,7 hPa 0,0 l/m 0 min 0 min 154 W/m 16,1 km/h (3 Bft) 97,87 %
26.10.2018 12:44 11,1 C 11,1 C 10,0 C 82 % 1005,6 hPa 0,0 l/m 0 min 0 min 141 W/m 19,3 km/h (3 Bft) 97,87 %
26.10.2018 12:46 11,1 C 10,6 C 10,0 C 82 % 1005,7 hPa 0,0 l/m 0 min 0 min 120 W/m 16,1 km/h (3 Bft) 97,87 %
26.10.2018 12:48 11,1 C 10,6 C 10,0 C 82 % 1005,7 hPa 0,0 l/m 0 min 0 min 104 W/m 16,1 km/h (3 Bft) 95,65 %
26.10.2018 12:50 11,1 C 10,6 C 10,0 C 82 % 1005,6 hPa 0,0 l/m 0 min 0 min 99 W/m 12,9 km/h (3 Bft) 100,00 %
26.10.2018 12:52 11,1 C 10,6 C 10,0 C 82 % 1005,6 hPa 0,0 l/m 0 min 0 min 111 W/m 16,1 km/h (3 Bft) 100,00 %
26.10.2018 12:54 11,1 C 10,6 C 10,0 C 82 % 1005,6 hPa 0,0 l/m 0 min 0 min 122 W/m 12,9 km/h (3 Bft) 100,00 %
26.10.2018 12:56 11,1 C 10,6 C 10,0 C 82 % 1005,6 hPa 0,0 l/m 0 min 0 min 113 W/m 12,9 km/h (3 Bft) 97,87 %
26.10.2018 12:58 11,1 C 10,6 C 10,0 C 82 % 1005,7 hPa 0,0 l/m 0 min 0 min 104 W/m 9,7 km/h (2 Bft) 100,00 %
26.10.2018 13:00 11,1 C 10,6 C 10,0 C 82 % 1005,7 hPa 0,0 l/m 0 min 0 min 79 W/m 12,9 km/h (3 Bft) 100,00 %
26.10.2018 13:02 11,0 C 10,6 C 10,0 C 82 % 1005,6 hPa 0,0 l/m 0 min 0 min 83 W/m 22,5 km/h (4 Bft) 100,00 %
26.10.2018 13:04 11,0 C 10,6 C 10,0 C 82 % 1005,6 hPa 0,0 l/m 0 min 0 min 86 W/m 6,4 km/h (2 Bft) 97,87 %
26.10.2018 13:08 11,0 C 10,6 C 10,0 C 82 % 1005,6 hPa 0,0 l/m 0 min 0 min 106 W/m 25,7 km/h (4 Bft) 96,81 %
26.10.2018 13:10 11,0 C 10,6 C 10,0 C 83 % 1005,5 hPa 0,0 l/m 0 min 0 min 118 W/m 12,9 km/h (3 Bft) 97,87 %
26.10.2018 13:12 11,0 C 10,6 C 10,0 C 83 % 1005,5 hPa 0,0 l/m 0 min 0 min 112 W/m 16,1 km/h (3 Bft) 97,83 %
26.10.2018 13:14 11,0 C 10,6 C 10,0 C 83 % 1005,4 hPa 0,0 l/m 0 min 0 min 111 W/m 9,7 km/h (2 Bft) 97,87 %
26.10.2018 13:16 11,0 C 10,6 C 10,0 C 83 % 1005,5 hPa 0,0 l/m 0 min 0 min 109 W/m 6,4 km/h (2 Bft) 95,74 %
26.10.2018 13:18 11,0 C 10,6 C 10,0 C 83 % 1005,4 hPa 0,0 l/m 0 min 0 min 110 W/m 16,1 km/h (3 Bft) 95,74 %
26.10.2018 13:20 11,0 C 10,6 C 10,0 C 83 % 1005,5 hPa 0,0 l/m 0 min 0 min 118 W/m 16,1 km/h (3 Bft) 95,74 %
26.10.2018 13:22 11,0 C 10,6 C 10,0 C 83 % 1005,3 hPa 0,0 l/m 0 min 0 min 113 W/m 16,1 km/h (3 Bft) 97,87 %
26.10.2018 13:24 11,0 C 10,6 C 10,0 C 83 % 1005,4 hPa 0,0 l/m 0 min 0 min 98 W/m 12,9 km/h (3 Bft) 95,65 %
26.10.2018 13:26 11,0 C 10,6 C 10,0 C 83 % 1005,4 hPa 0,0 l/m 0 min 0 min 82 W/m 16,1 km/h (3 Bft) 95,74 %
26.10.2018 13:28 11,0 C 10,6 C 10,0 C 83 % 1005,3 hPa 0,0 l/m 0 min 0 min 78 W/m 9,7 km/h (2 Bft) 97,87 %
26.10.2018 13:30 11,0 C 10,6 C 10,0 C 83 % 1005,4 hPa 0,0 l/m 0 min 0 min 71 W/m 9,7 km/h (2 Bft) 97,87 %
26.10.2018 13:32 11,0 C 10,6 C 10,0 C 83 % 1005,3 hPa 0,0 l/m 0 min 0 min 73 W/m 16,1 km/h (3 Bft) 97,87 %
26.10.2018 13:34 11,0 C 10,6 C 10,0 C 83 % 1005,2 hPa 0,0 l/m 0 min 0 min 82 W/m 12,9 km/h (3 Bft) 95,65 %
26.10.2018 13:38 11,0 C 10,6 C 10,0 C 83 % 1005,2 hPa 0,0 l/m 0 min 0 min 68 W/m 9,7 km/h (2 Bft) 95,74 %
26.10.2018 13:40 11,0 C 10,6 C 10,0 C 83 % 1005,1 hPa 0,0 l/m 0 min 0 min 58 W/m 9,7 km/h (2 Bft) 95,74 %
26.10.2018 13:42 11,0 C 10,6 C 10,0 C 83 % 1005,1 hPa 0,0 l/m 0 min 0 min 49 W/m 9,7 km/h (2 Bft) 93,62 %
26.10.2018 13:44 11,0 C 10,6 C 10,0 C 83 % 1005,1 hPa 0,0 l/m 0 min 0 min 45 W/m 16,1 km/h (3 Bft) 95,74 %
26.10.2018 13:46 11,0 C 10,6 C 10,0 C 83 % 1005,1 hPa 0,0 l/m 0 min 0 min 45 W/m 9,7 km/h (2 Bft) 93,48 %
26.10.2018 13:48 10,9 C 10,6 C 10,0 C 83 % 1005,1 hPa 0,0 l/m 0 min 0 min 49 W/m 9,7 km/h (2 Bft) 95,74 %
26.10.2018 13:50 10,9 C 10,6 C 10,0 C 83 % 1004,9 hPa 0,0 l/m 0 min 0 min 68 W/m 12,9 km/h (3 Bft) 95,74 %
26.10.2018 13:52 10,9 C 10,6 C 10,0 C 83 % 1004,9 hPa 0,0 l/m 0 min 0 min 73 W/m 16,1 km/h (3 Bft) 95,74 %
26.10.2018 13:54 10,9 C 10,6 C 10,0 C 84 % 1005,0 hPa 0,0 l/m 0 min 0 min 73 W/m 19,3 km/h (3 Bft) 95,74 %
26.10.2018 13:56 10,9 C 10,6 C 10,0 C 84 % 1004,8 hPa 0,0 l/m 0 min 0 min 73 W/m 12,9 km/h (3 Bft) 93,62 %
26.10.2018 13:58 10,9 C 10,6 C 10,0 C 84 % 1004,9 hPa 0,0 l/m 0 min 0 min 69 W/m 12,9 km/h (3 Bft) 95,65 %
26.10.2018 14:00 10,9 C 10,6 C 10,0 C 84 % 1004,9 hPa 0,0 l/m 0 min 0 min 59 W/m 16,1 km/h (3 Bft) 95,74 %
26.10.2018 14:02 10,8 C 10,6 C 10,0 C 84 % 1004,9 hPa 0,0 l/m 0 min 0 min 53 W/m 22,5 km/h (4 Bft) 95,74 %
26.10.2018 14:04 10,8 C 10,6 C 10,0 C 84 % 1004,9 hPa 0,0 l/m 0 min 0 min 61 W/m 12,9 km/h (3 Bft) 95,74 %
26.10.2018 14:08 10,8 C 10,6 C 10,0 C 84 % 1004,8 hPa 0,0 l/m 0 min 0 min 104 W/m 9,7 km/h (2 Bft) 95,74 %
26.10.2018 14:10 10,8 C 10,6 C 10,0 C 84 % 1004,7 hPa 0,0 l/m 0 min 0 min 143 W/m 6,4 km/h (2 Bft) 97,83 %
26.10.2018 14:12 10,9 C 10,6 C 10,0 C 85 % 1004,7 hPa 0,0 l/m 0 min 0 min 137 W/m 12,9 km/h (3 Bft) 91,49 %
26.10.2018 14:14 10,9 C 11,1 C 10,6 C 85 % 1004,7 hPa 0,0 l/m 0 min 0 min 127 W/m 6,4 km/h (2 Bft) 95,74 %
26.10.2018 14:16 10,9 C 11,1 C 10,6 C 85 % 1004,7 hPa 0,0 l/m 0 min 0 min 140 W/m 9,7 km/h (2 Bft) 93,62 %
26.10.2018 14:18 10,9 C 11,1 C 10,6 C 85 % 1004,6 hPa 0,0 l/m 0 min 0 min 149 W/m 12,9 km/h (3 Bft) 95,74 %
26.10.2018 14:20 10,9 C 11,1 C 10,6 C 85 % 1004,5 hPa 0,0 l/m 0 min 0 min 148 W/m 9,7 km/h (2 Bft) 97,87 %
26.10.2018 14:22 11,0 C 11,1 C 10,6 C 85 % 1004,6 hPa 0,0 l/m 0 min 0 min 142 W/m 16,1 km/h (3 Bft) 97,83 %
26.10.2018 14:24 11,1 C 11,1 C 10,6 C 84 % 1004,6 hPa 0,0 l/m 0 min 0 min 134 W/m 16,1 km/h (3 Bft) 97,87 %
26.10.2018 14:26 11,1 C 11,1 C 10,6 C 84 % 1004,6 hPa 0,0 l/m 0 min 0 min 136 W/m 22,5 km/h (4 Bft) 100,00 %
26.10.2018 14:28 11,1 C 11,1 C 10,6 C 84 % 1004,6 hPa 0,0 l/m 0 min 0 min 109 W/m 16,1 km/h (3 Bft) 97,87 %
26.10.2018 14:30 11,1 C 11,1 C 10,6 C 84 % 1004,6 hPa 0,0 l/m 0 min 0 min 85 W/m 16,1 km/h (3 Bft) 100,00 %
26.10.2018 14:32 11,2 C 11,1 C 10,6 C 84 % 1004,6 hPa 0,0 l/m 0 min 0 min 71 W/m 19,3 km/h (3 Bft) 100,00 %
26.10.2018 14:34 11,2 C 11,1 C 10,6 C 84 % 1004,6 hPa 0,0 l/m 0 min 0 min 82 W/m 6,4 km/h (2 Bft) 100,00 %
26.10.2018 14:38 11,2 C 11,1 C 10,6 C 84 % 1004,6 hPa 0,0 l/m 0 min 0 min 88 W/m 12,9 km/h (3 Bft) 100,00 %
26.10.2018 14:40 11,2 C 11,1 C 10,6 C 83 % 1004,5 hPa 0,0 l/m 0 min 0 min 96 W/m 19,3 km/h (3 Bft) 100,00 %
26.10.2018 14:42 11,2 C 11,1 C 10,6 C 83 % 1004,5 hPa 0,0 l/m 0 min 0 min 84 W/m 12,9 km/h (3 Bft) 97,87 %
26.10.2018 14:44 11,2 C 11,1 C 10,6 C 83 % 1004,5 hPa 0,0 l/m 0 min 0 min 77 W/m 9,7 km/h (2 Bft) 100,00 %
26.10.2018 14:46 11,2 C 11,1 C 10,6 C 83 % 1004,5 hPa 0,0 l/m 0 min 0 min 53 W/m 9,7 km/h (2 Bft) 100,00 %
26.10.2018 14:48 11,2 C 10,6 C 10,6 C 83 % 1004,5 hPa 0,0 l/m 0 min 0 min 34 W/m 9,7 km/h (2 Bft) 97,87 %
26.10.2018 14:50 11,2 C 10,6 C 10,6 C 83 % 1004,5 hPa 0,0 l/m 0 min 0 min 35 W/m 6,4 km/h (2 Bft) 97,87 %
26.10.2018 14:52 11,2 C 10,6 C 10,6 C 83 % 1004,5 hPa 0,0 l/m 0 min 0 min 37 W/m 9,7 km/h (2 Bft) 95,74 %
26.10.2018 14:54 11,3 C 10,6 C 10,6 C 83 % 1004,5 hPa 0,0 l/m 0 min 0 min 41 W/m 9,7 km/h (2 Bft) 97,87 %
26.10.2018 14:56 11,3 C 10,6 C 10,6 C 83 % 1004,5 hPa 0,0 l/m 0 min 0 min 49 W/m 9,7 km/h (2 Bft) 97,83 %
26.10.2018 14:58 11,3 C 10,6 C 10,6 C 83 % 1004,4 hPa 0,0 l/m 0 min 0 min 62 W/m 12,9 km/h (3 Bft) 97,87 %
26.10.2018 15:00 11,2 C 11,1 C 10,6 C 82 % 1004,4 hPa 0,0 l/m 0 min 0 min 68 W/m 9,7 km/h (2 Bft) 97,87 %
26.10.2018 15:02 11,3 C 11,1 C 10,6 C 82 % 1004,4 hPa 0,0 l/m 0 min 0 min 62 W/m 12,9 km/h (3 Bft) 97,87 %
26.10.2018 15:04 11,3 C 11,1 C 10,6 C 82 % 1004,4 hPa 0,0 l/m 0 min 0 min 58 W/m 12,9 km/h (3 Bft) 97,87 %
26.10.2018 15:08 11,3 C 11,1 C 10,6 C 82 % 1004,1 hPa 0,0 l/m 0 min 0 min 56 W/m 9,7 km/h (2 Bft) 97,73 %
26.10.2018 15:10 11,3 C 11,1 C 10,6 C 82 % 1004,2 hPa 0,0 l/m 0 min 0 min 59 W/m 12,9 km/h (3 Bft) 97,92 %
26.10.2018 15:12 11,3 C 11,1 C 10,6 C 82 % 1004,1 hPa 0,0 l/m 0 min 0 min 65 W/m 19,3 km/h (3 Bft) 91,49 %
26.10.2018 15:14 11,3 C 11,1 C 10,6 C 82 % 1003,9 hPa 0,0 l/m 0 min 0 min 67 W/m 6,4 km/h (2 Bft) 97,83 %
26.10.2018 15:16 11,3 C 11,1 C 10,6 C 83 % 1004,0 hPa 0,0 l/m 0 min 0 min 54 W/m 9,7 km/h (2 Bft) 97,87 %
26.10.2018 15:18 11,3 C 11,1 C 10,6 C 83 % 1004,0 hPa 0,0 l/m 0 min 0 min 42 W/m 9,7 km/h (2 Bft) 97,87 %
26.10.2018 15:20 11,3 C 11,1 C 10,6 C 82 % 1003,9 hPa 0,0 l/m 0 min 0 min 39 W/m 12,9 km/h (3 Bft) 97,87 %
26.10.2018 15:22 11,3 C 11,1 C 10,6 C 82 % 1003,9 hPa 0,0 l/m 0 min 0 min 33 W/m 9,7 km/h (2 Bft) 97,87 %
26.10.2018 15:24 11,3 C 10,6 C 10,6 C 82 % 1004,0 hPa 0,0 l/m 0 min 0 min 27 W/m 9,7 km/h (2 Bft) 97,83 %
26.10.2018 15:26 11,3 C 10,6 C 10,6 C 82 % 1003,9 hPa 0,0 l/m 0 min 0 min 22 W/m 12,9 km/h (3 Bft) 97,87 %
26.10.2018 15:28 11,3 C 10,6 C 10,6 C 82 % 1003,9 hPa 0,0 l/m 0 min 0 min 22 W/m 9,7 km/h (2 Bft) 97,87 %
26.10.2018 15:30 11,3 C 10,6 C 10,6 C 82 % 1003,9 hPa 0,0 l/m 0 min 0 min 24 W/m 9,7 km/h (2 Bft) 95,74 %
26.10.2018 15:32 11,3 C 10,6 C 10,6 C 82 % 1003,8 hPa 0,0 l/m 0 min 0 min 29 W/m 12,9 km/h (3 Bft) 95,74 %
26.10.2018 15:34 11,3 C 10,6 C 10,6 C 82 % 1003,8 hPa 0,0 l/m 0 min 0 min 54 W/m 12,9 km/h (3 Bft) 100,00 %
26.10.2018 15:38 11,3 C 11,1 C 10,6 C 82 % 1003,8 hPa 0,0 l/m 0 min 0 min 91 W/m 12,9 km/h (3 Bft) 98,92 %
26.10.2018 15:40 11,3 C 11,1 C 10,6 C 82 % 1003,8 hPa 0,0 l/m 0 min 0 min 93 W/m 9,7 km/h (2 Bft) 100,00 %
26.10.2018 15:42 11,3 C 11,1 C 10,6 C 82 % 1003,8 hPa 0,0 l/m 0 min 0 min 105 W/m 16,1 km/h (3 Bft) 100,00 %
26.10.2018 15:44 11,3 C 11,1 C 10,6 C 82 % 1003,8 hPa 0,0 l/m 0 min 0 min 130 W/m 9,7 km/h (2 Bft) 100,00 %
26.10.2018 15:46 11,3 C 11,1 C 10,6 C 83 % 1004,0 hPa 0,0 l/m 2 min 0 min 160 W/m 19,3 km/h (3 Bft) 95,74 %
26.10.2018 15:48 11,3 C 11,7 C 10,6 C 83 % 1003,9 hPa 0,0 l/m 0 min 0 min 121 W/m 9,7 km/h (2 Bft) 100,00 %
26.10.2018 15:50 11,4 C 11,7 C 10,6 C 83 % 1004,0 hPa 0,0 l/m 0 min 0 min 131 W/m 19,3 km/h (3 Bft) 97,87 %
26.10.2018 15:52 11,4 C 11,1 C 10,6 C 83 % 1003,9 hPa 0,0 l/m 0 min 0 min 106 W/m 9,7 km/h (2 Bft) 97,87 %
26.10.2018 15:54 11,4 C 11,1 C 10,6 C 82 % 1003,9 hPa 0,0 l/m 0 min 0 min 91 W/m 12,9 km/h (3 Bft) 100,00 %
26.10.2018 15:56 11,4 C 11,1 C 10,6 C 82 % 1003,9 hPa 0,0 l/m 0 min 0 min 111 W/m 12,9 km/h (3 Bft) 100,00 %
26.10.2018 15:58 11,4 C 11,1 C 10,6 C 82 % 1003,9 hPa 0,0 l/m 0 min 0 min 144 W/m 9,7 km/h (2 Bft) 100,00 %
26.10.2018 16:00 11,4 C 11,1 C 10,6 C 82 % 1003,9 hPa 0,0 l/m 0 min 0 min 140 W/m 6,4 km/h (2 Bft) 97,87 %
26.10.2018 16:02 11,4 C 11,1 C 10,6 C 82 % 1003,9 hPa 0,0 l/m 0 min 0 min 124 W/m 19,3 km/h (3 Bft) 97,87 %
26.10.2018 16:04 11,4 C 11,7 C 10,6 C 82 % 1003,9 hPa 0,0 l/m 2 min 0 min 152 W/m 9,7 km/h (2 Bft) 100,00 %
26.10.2018 16:08 11,5 C 11,7 C 10,6 C 82 % 1003,8 hPa 0,0 l/m 4 min 0 min 161 W/m 16,1 km/h (3 Bft) 100,00 %
26.10.2018 16:10 11,5 C 11,7 C 10,6 C 82 % 1003,8 hPa 0,0 l/m 2 min 0 min 158 W/m 25,7 km/h (4 Bft) 100,00 %
26.10.2018 16:12 11,5 C 11,1 C 10,6 C 82 % 1003,9 hPa 0,0 l/m 0 min 0 min 118 W/m 9,7 km/h (2 Bft) 100,00 %
26.10.2018 16:14 11,5 C 11,1 C 10,6 C 82 % 1003,8 hPa 0,0 l/m 0 min 0 min 89 W/m 12,9 km/h (3 Bft) 100,00 %
26.10.2018 16:16 11,5 C 11,1 C 10,6 C 82 % 1003,8 hPa 0,0 l/m 0 min 0 min 87 W/m 16,1 km/h (3 Bft) 100,00 %
26.10.2018 16:18 11,5 C 11,1 C 10,6 C 82 % 1003,8 hPa 0,0 l/m 0 min 0 min 98 W/m 16,1 km/h (3 Bft) 100,00 %
26.10.2018 16:20 11,5 C 11,1 C 10,6 C 81 % 1003,7 hPa 0,0 l/m 0 min 0 min 93 W/m 16,1 km/h (3 Bft) 100,00 %
26.10.2018 16:22 11,6 C 11,1 C 10,6 C 81 % 1003,8 hPa 0,0 l/m 0 min 0 min 69 W/m 12,9 km/h (3 Bft) 93,48 %
26.10.2018 16:24 11,5 C 11,1 C 10,6 C 81 % 1003,9 hPa 0,0 l/m 0 min 0 min 43 W/m 12,9 km/h (3 Bft) 97,87 %
26.10.2018 16:26 11,5 C 11,1 C 10,6 C 81 % 1003,8 hPa 0,0 l/m 0 min 0 min 38 W/m 16,1 km/h (3 Bft) 100,00 %
26.10.2018 16:28 11,5 C 11,1 C 10,6 C 81 % 1003,8 hPa 0,0 l/m 0 min 0 min 35 W/m 6,4 km/h (2 Bft) 100,00 %
26.10.2018 16:30 11,5 C 11,1 C 10,6 C 82 % 1003,7 hPa 0,0 l/m 0 min 0 min 39 W/m 12,9 km/h (3 Bft) 100,00 %
26.10.2018 16:32 11,5 C 11,1 C 10,6 C 81 % 1003,7 hPa 0,0 l/m 0 min 0 min 45 W/m 9,7 km/h (2 Bft) 93,62 %
26.10.2018 16:34 11,4 C 11,1 C 10,6 C 81 % 1003,7 hPa 0,0 l/m 0 min 0 min 61 W/m 16,1 km/h (3 Bft) 100,00 %
26.10.2018 16:38 11,4 C 11,1 C 10,6 C 81 % 1003,7 hPa 0,0 l/m 4 min 0 min 113 W/m 16,1 km/h (3 Bft) 100,00 %
26.10.2018 16:40 11,4 C 11,1 C 10,6 C 81 % 1003,7 hPa 0,0 l/m 0 min 0 min 106 W/m 19,3 km/h (3 Bft) 91,49 %
26.10.2018 16:42 11,4 C 11,1 C 10,6 C 81 % 1003,7 hPa 0,0 l/m 0 min 0 min 95 W/m 9,7 km/h (2 Bft) 95,74 %
26.10.2018 16:44 11,4 C 11,1 C 10,6 C 81 % 1003,7 hPa 0,0 l/m 0 min 0 min 99 W/m 9,7 km/h (2 Bft) 95,74 %
26.10.2018 16:46 11,4 C 11,1 C 10,6 C 81 % 1003,7 hPa 0,0 l/m 2 min 0 min 105 W/m 9,7 km/h (2 Bft) 95,74 %
26.10.2018 16:48 11,4 C 11,7 C 10,6 C 81 % 1003,5 hPa 0,0 l/m 2 min 0 min 122 W/m 6,4 km/h (2 Bft) 95,74 %
26.10.2018 16:50 11,5 C 11,7 C 10,6 C 82 % 1003,5 hPa 0,0 l/m 2 min 0 min 106 W/m 12,9 km/h (3 Bft) 95,74 %
26.10.2018 16:52 11,5 C 11,7 C 10,6 C 81 % 1003,5 hPa 0,0 l/m 0 min 0 min 83 W/m 6,4 km/h (2 Bft) 95,74 %
26.10.2018 16:54 11,5 C 11,7 C 10,6 C 81 % 1003,5 hPa 0,0 l/m 0 min 0 min 76 W/m 6,4 km/h (2 Bft) 95,74 %
26.10.2018 16:56 11,5 C 11,1 C 10,6 C 81 % 1003,5 hPa 0,0 l/m 0 min 0 min 72 W/m 9,7 km/h (2 Bft) 95,74 %
26.10.2018 16:58 11,5 C 11,1 C 10,6 C 81 % 1003,5 hPa 0,0 l/m 0 min 0 min 69 W/m 9,7 km/h (2 Bft) 94,44 %
26.10.2018 17:00 11,5 C 11,1 C 10,6 C 81 % 1003,5 hPa 0,0 l/m 0 min 0 min 64 W/m 9,7 km/h (2 Bft) 95,65 %
26.10.2018 17:02 11,5 C 11,1 C 10,6 C 80 % 1003,5 hPa 0,0 l/m 0 min 0 min 60 W/m 12,9 km/h (3 Bft) 95,74 %
26.10.2018 17:04 11,5 C 11,1 C 10,6 C 80 % 1003,5 hPa 0,0 l/m 0 min 0 min 52 W/m 12,9 km/h (3 Bft) 97,87 %
26.10.2018 17:08 11,5 C 11,1 C 10,6 C 80 % 1003,5 hPa 0,0 l/m 0 min 0 min 36 W/m 9,7 km/h (2 Bft) 95,74 %
26.10.2018 17:10 11,5 C 11,1 C 10,6 C 80 % 1003,5 hPa 0,0 l/m 0 min 0 min 32 W/m 16,1 km/h (3 Bft) 95,74 %
26.10.2018 17:12 11,5 C 11,1 C 10,6 C 79 % 1003,4 hPa 0,0 l/m 0 min 0 min 31 W/m 9,7 km/h (2 Bft) 93,62 %
26.10.2018 17:14 11,5 C 11,1 C 10,6 C 79 % 1003,5 hPa 0,0 l/m 0 min 0 min 28 W/m 16,1 km/h (3 Bft) 95,65 %
26.10.2018 17:16 11,5 C 11,1 C 10,6 C 80 % 1003,5 hPa 0,0 l/m 0 min 0 min 25 W/m 6,4 km/h (2 Bft) 95,74 %
26.10.2018 17:18 11,5 C 10,6 C 10,6 C 80 % 1003,5 hPa 0,0 l/m 0 min 0 min 29 W/m 9,7 km/h (2 Bft) 95,74 %
26.10.2018 17:20 11,4 C 10,6 C 10,6 C 80 % 1003,4 hPa 0,0 l/m 0 min 0 min 30 W/m 9,7 km/h (2 Bft) 96,61 %
26.10.2018 17:22 11,4 C 10,6 C 10,6 C 80 % 1003,5 hPa 0,0 l/m 0 min 0 min 22 W/m 9,7 km/h (2 Bft) 95,65 %
26.10.2018 17:24 11,4 C 10,6 C 10,6 C 80 % 1003,4 hPa 0,0 l/m 0 min 0 min 17 W/m 12,9 km/h (3 Bft) 94,29 %
26.10.2018 17:26 11,4 C 10,6 C 10,6 C 80 % 1003,4 hPa 0,0 l/m 0 min 0 min 14 W/m 19,3 km/h (3 Bft) 95,74 %
26.10.2018 17:28 11,4 C 10,6 C 10,6 C 80 % 1003,4 hPa 0,0 l/m 0 min 0 min 16 W/m 16,1 km/h (3 Bft) 95,74 %
26.10.2018 17:30 11,4 C 10,6 C 10,6 C 80 % 1003,4 hPa 0,0 l/m 0 min 2 min 17 W/m 12,9 km/h (3 Bft) 93,62 %
26.10.2018 17:32 11,4 C 10,6 C 10,6 C 80 % 1003,4 hPa 0,0 l/m 0 min 2 min 15 W/m 9,7 km/h (2 Bft) 95,83 %
26.10.2018 17:34 11,4 C 10,6 C 10,6 C 80 % 1003,4 hPa 0,0 l/m 0 min 0 min 14 W/m 9,7 km/h (2 Bft) 93,62 %
26.10.2018 17:38 11,4 C 10,6 C 10,6 C 80 % 1003,3 hPa 0,0 l/m 0 min 0 min 12 W/m 9,7 km/h (2 Bft) 95,70 %
26.10.2018 17:40 11,3 C 10,6 C 10,6 C 80 % 1003,3 hPa 0,0 l/m 0 min 2 min 12 W/m 9,7 km/h (2 Bft) 97,87 %
26.10.2018 17:42 11,3 C 10,6 C 10,6 C 80 % 1003,5 hPa 0,0 l/m 0 min 0 min 9 W/m 6,4 km/h (2 Bft) 95,74 %
26.10.2018 17:44 11,3 C 10,6 C 10,6 C 80 % 1003,4 hPa 0,0 l/m 0 min 0 min 7 W/m 6,4 km/h (2 Bft) 97,87 %
26.10.2018 17:46 11,3 C 10,6 C 10,6 C 80 % 1003,3 hPa 0,0 l/m 0 min 2 min 6 W/m 3,2 km/h (1 Bft) 97,87 %
26.10.2018 17:48 11,3 C 10,6 C 10,0 C 80 % 1003,5 hPa 0,0 l/m 0 min 0 min 7 W/m 12,9 km/h (3 Bft) 97,83 %
26.10.2018 17:50 11,3 C 10,0 C 10,0 C 80 % 1003,4 hPa 0,0 l/m 0 min 0 min 10 W/m 12,9 km/h (3 Bft) 94,92 %
26.10.2018 17:52 11,2 C 10,0 C 10,0 C 81 % 1003,4 hPa 0,0 l/m 0 min 0 min 13 W/m 12,9 km/h (3 Bft) 94,29 %
26.10.2018 17:54 11,2 C 10,0 C 10,0 C 81 % 1003,4 hPa 0,0 l/m 0 min 2 min 12 W/m 16,1 km/h (3 Bft) 97,87 %
26.10.2018 17:56 11,2 C 10,0 C 9,4 C 81 % 1003,3 hPa 0,0 l/m 0 min 2 min 9 W/m 9,7 km/h (2 Bft) 97,87 %
26.10.2018 17:58 11,1 C 10,0 C 10,0 C 82 % 1003,3 hPa 0,0 l/m 0 min 0 min 8 W/m 12,9 km/h (3 Bft) 97,87 %
26.10.2018 18:00 11,1 C 10,0 C 10,0 C 82 % 1003,4 hPa 0,0 l/m 0 min 0 min 7 W/m 9,7 km/h (2 Bft) 98,00 %
26.10.2018 18:02 11,1 C 10,0 C 10,0 C 82 % 1003,3 hPa 0,0 l/m 0 min 0 min 7 W/m 6,4 km/h (2 Bft) 95,65 %
26.10.2018 18:04 11,0 C 10,0 C 10,0 C 82 % 1003,3 hPa 0,0 l/m 0 min 2 min 5 W/m 9,7 km/h (2 Bft) 95,74 %
26.10.2018 18:08 10,9 C 9,4 C 9,4 C 82 % 1003,1 hPa 0,0 l/m 0 min 4 min 5 W/m 9,7 km/h (2 Bft) 94,68 %
26.10.2018 18:10 10,9 C 8,9 C 9,4 C 83 % 1003,1 hPa 0,0 l/m 0 min 2 min 5 W/m 6,4 km/h (2 Bft) 97,83 %
26.10.2018 18:12 10,8 C 8,9 C 9,4 C 83 % 1003,2 hPa 0,0 l/m 0 min 2 min 1 W/m 6,4 km/h (2 Bft) 95,83 %
26.10.2018 18:14 10,8 C 8,9 C 9,4 C 83 % 1003,1 hPa 0,0 l/m 0 min 2 min 0 W/m 12,9 km/h (3 Bft) 97,87 %
26.10.2018 18:16 10,8 C 8,9 C 9,4 C 83 % 1003,3 hPa 0,0 l/m 0 min 2 min 0 W/m 6,4 km/h (2 Bft) 97,87 %
26.10.2018 18:18 10,8 C 8,9 C 8,9 C 84 % 1003,1 hPa 0,0 l/m 0 min 2 min 0 W/m 12,9 km/h (3 Bft) 100,00 %
26.10.2018 18:20 10,7 C 8,9 C 8,9 C 84 % 1003,1 hPa 0,0 l/m 0 min 2 min 0 W/m 6,4 km/h (2 Bft) 98,28 %
26.10.2018 18:22 10,7 C 8,9 C 8,9 C 84 % 1003,2 hPa 0,0 l/m 0 min 2 min 0 W/m 12,9 km/h (3 Bft) 100,00 %
26.10.2018 18:24 10,6 C 8,9 C 8,9 C 84 % 1003,2 hPa 0,0 l/m 0 min 2 min 0 W/m 9,7 km/h (2 Bft) 100,00 %
26.10.2018 18:26 10,6 C 8,3 C 8,9 C 84 % 1003,1 hPa 0,0 l/m 0 min 2 min 0 W/m 6,4 km/h (2 Bft) 100,00 %
26.10.2018 18:28 10,6 C 8,3 C 8,9 C 84 % 1003,2 hPa 0,0 l/m 0 min 2 min 0 W/m 9,7 km/h (2 Bft) 97,87 %
26.10.2018 18:30 10,6 C 8,3 C 8,9 C 84 % 1003,2 hPa 0,0 l/m 0 min 0 min 0 W/m 6,4 km/h (2 Bft) 100,00 %
26.10.2018 18:32 10,5 C 8,9 C 9,4 C 85 % 1003,2 hPa 0,0 l/m 0 min 0 min 0 W/m 6,4 km/h (2 Bft) 100,00 %
26.10.2018 18:34 10,5 C 8,9 C 9,4 C 85 % 1003,3 hPa 0,0 l/m 0 min 0 min 0 W/m 3,2 km/h (1 Bft) 100,00 %
26.10.2018 18:38 10,4 C 8,9 C 9,4 C 85 % 1003,3 hPa 0,0 l/m 0 min 0 min 0 W/m 6,4 km/h (2 Bft) 98,95 %
26.10.2018 18:40 10,4 C 8,9 C 9,4 C 85 % 1003,3 hPa 0,0 l/m 0 min 0 min 0 W/m 9,7 km/h (2 Bft) 100,00 %
26.10.2018 18:42 10,4 C 8,9 C 9,4 C 85 % 1003,3 hPa 0,0 l/m 0 min 2 min 0 W/m 12,9 km/h (3 Bft) 100,00 %
26.10.2018 18:44 10,3 C 8,9 C 9,4 C 85 % 1003,3 hPa 0,0 l/m 0 min 2 min 0 W/m 6,4 km/h (2 Bft) 97,83 %
26.10.2018 18:46 10,3 C 8,9 C 8,9 C 85 % 1003,3 hPa 0,0 l/m 0 min 0 min 0 W/m 3,2 km/h (1 Bft) 100,00 %
26.10.2018 18:48 10,3 C 8,9 C 9,4 C 85 % 1003,4 hPa 0,0 l/m 0 min 0 min 0 W/m 6,4 km/h (2 Bft) 100,00 %
26.10.2018 18:50 10,3 C 8,9 C 9,4 C 86 % 1003,4 hPa 0,0 l/m 0 min 2 min 0 W/m 9,7 km/h (2 Bft) 100,00 %
26.10.2018 18:52 10,2 C 8,9 C 9,4 C 86 % 1003,4 hPa 0,0 l/m 0 min 2 min 0 W/m 9,7 km/h (2 Bft) 100,00 %
26.10.2018 18:54 10,2 C 8,3 C 8,9 C 86 % 1003,4 hPa 0,0 l/m 0 min 2 min 0 W/m 12,9 km/h (3 Bft) 100,00 %
26.10.2018 18:56 10,2 C 7,8 C 8,3 C 86 % 1003,4 hPa 0,2 l/m 0 min 2 min 0 W/m 6,4 km/h (2 Bft) 100,00 %
26.10.2018 18:58 10,2 C 7,8 C 8,3 C 86 % 1003,4 hPa 0,0 l/m 0 min 2 min 0 W/m 6,4 km/h (2 Bft) 100,00 %
26.10.2018 19:00 10,2 C 7,8 C 8,3 C 86 % 1003,4 hPa 0,0 l/m 0 min 2 min 0 W/m 6,4 km/h (2 Bft) 97,87 %
26.10.2018 19:02 10,2 C 7,8 C 7,8 C 86 % 1003,5 hPa 0,0 l/m 0 min 2 min 0 W/m 6,4 km/h (2 Bft) 100,00 %
26.10.2018 19:04 10,1 C 7,8 C 8,3 C 86 % 1003,5 hPa 0,0 l/m 0 min 2 min 0 W/m 9,7 km/h (2 Bft) 100,00 %
26.10.2018 19:08 10,1 C 7,8 C 7,8 C 87 % 1003,6 hPa 0,0 l/m 0 min 4 min 0 W/m 25,7 km/h (4 Bft) 100,00 %
26.10.2018 19:10 10,0 C 7,8 C 7,8 C 87 % 1003,5 hPa 0,0 l/m 0 min 2 min 0 W/m 16,1 km/h (3 Bft) 97,87 %
26.10.2018 19:12 10,0 C 7,8 C 7,8 C 87 % 1003,6 hPa 0,0 l/m 0 min 0 min 0 W/m 9,7 km/h (2 Bft) 100,00 %
26.10.2018 19:14 9,9 C 7,8 C 7,8 C 87 % 1003,5 hPa 0,0 l/m 0 min 0 min 0 W/m 16,1 km/h (3 Bft) 100,00 %
26.10.2018 19:16 9,9 C 7,8 C 8,3 C 88 % 1003,6 hPa 0,0 l/m 0 min 0 min 0 W/m 9,7 km/h (2 Bft) 95,74 %
26.10.2018 19:18 9,9 C 7,8 C 8,3 C 88 % 1003,6 hPa 0,0 l/m 0 min 0 min 0 W/m 9,7 km/h (2 Bft) 97,87 %
26.10.2018 19:20 9,9 C 7,8 C 8,3 C 88 % 1003,6 hPa 0,0 l/m 0 min 2 min 0 W/m 12,9 km/h (3 Bft) 97,83 %
26.10.2018 19:22 9,8 C 7,8 C 8,3 C 88 % 1003,6 hPa 0,0 l/m 0 min 0 min 0 W/m 9,7 km/h (2 Bft) 100,00 %
26.10.2018 19:24 9,8 C 7,8 C 8,3 C 89 % 1003,6 hPa 0,0 l/m 0 min 2 min 0 W/m 16,1 km/h (3 Bft) 97,87 %
26.10.2018 19:26 9,8 C 7,8 C 8,3 C 89 % 1003,7 hPa 0,0 l/m 0 min 2 min 0 W/m 9,7 km/h (2 Bft) 97,87 %
26.10.2018 19:28 9,7 C 7,8 C 7,8 C 89 % 1003,8 hPa 0,0 l/m 0 min 2 min 0 W/m 12,9 km/h (3 Bft) 97,87 %
26.10.2018 19:30 9,7 C 7,8 C 7,8 C 89 % 1003,8 hPa 0,0 l/m 0 min 2 min 0 W/m 12,9 km/h (3 Bft) 97,83 %
26.10.2018 19:32 9,7 C 7,8 C 7,8 C 89 % 1003,8 hPa 0,0 l/m 0 min 2 min 0 W/m 12,9 km/h (3 Bft) 97,87 %
26.10.2018 19:34 9,6 C 7,8 C 7,8 C 90 % 1003,8 hPa 0,0 l/m 0 min 2 min 0 W/m 9,7 km/h (2 Bft) 97,87 %
26.10.2018 19:38 9,6 C 7,8 C 7,8 C 90 % 1003,8 hPa 0,0 l/m 0 min 4 min 0 W/m 12,9 km/h (3 Bft) 96,81 %
26.10.2018 19:40 9,6 C 7,8 C 7,8 C 90 % 1003,8 hPa 0,0 l/m 0 min 2 min 0 W/m 12,9 km/h (3 Bft) 97,87 %
26.10.2018 19:42 9,5 C 7,8 C 7,8 C 90 % 1003,8 hPa 0,0 l/m 0 min 2 min 0 W/m 12,9 km/h (3 Bft) 95,65 %
26.10.2018 19:44 9,5 C 7,8 C 7,8 C 90 % 1003,8 hPa 0,0 l/m 0 min 2 min 0 W/m 16,1 km/h (3 Bft) 97,87 %
26.10.2018 19:46 9,4 C 7,8 C 7,8 C 91 % 1003,8 hPa 0,2 l/m 0 min 2 min 0 W/m 22,5 km/h (4 Bft) 95,74 %
26.10.2018 19:48 9,4 C 7,8 C 7,8 C 91 % 1003,9 hPa 0,0 l/m 0 min 2 min 0 W/m 12,9 km/h (3 Bft) 97,87 %
26.10.2018 19:50 9,3 C 7,2 C 7,8 C 91 % 1004,0 hPa 0,0 l/m 0 min 2 min 0 W/m 29,0 km/h (5 Bft) 97,87 %
26.10.2018 19:52 9,3 C 7,2 C 7,2 C 91 % 1003,9 hPa 0,0 l/m 0 min 2 min 0 W/m 16,1 km/h (3 Bft) 95,74 %
26.10.2018 19:54 9,2 C 7,2 C 7,2 C 91 % 1003,8 hPa 0,0 l/m 0 min 2 min 0 W/m 9,7 km/h (2 Bft) 97,83 %
26.10.2018 19:56 9,1 C 7,2 C 7,2 C 91 % 1003,9 hPa 0,0 l/m 0 min 2 min 0 W/m 16,1 km/h (3 Bft) 97,87 %
26.10.2018 19:58 9,1 C 7,2 C 7,2 C 91 % 1003,9 hPa 0,0 l/m 0 min 0 min 0 W/m 9,7 km/h (2 Bft) 97,87 %
26.10.2018 20:00 8,9 C 7,2 C 7,2 C 91 % 1003,9 hPa 0,0 l/m 0 min 0 min 0 W/m 12,9 km/h (3 Bft) 97,87 %
26.10.2018 20:02 8,9 C 7,2 C 7,2 C 91 % 1004,1 hPa 0,0 l/m 0 min 0 min 0 W/m 12,9 km/h (3 Bft) 97,87 %
26.10.2018 20:04 8,9 C 7,2 C 7,2 C 91 % 1004,0 hPa 0,0 l/m 0 min 0 min 0 W/m 12,9 km/h (3 Bft) 97,87 %
26.10.2018 20:08 8,8 C 7,2 C 7,2 C 91 % 1003,8 hPa 0,0 l/m 0 min 0 min 0 W/m 9,7 km/h (2 Bft) 97,87 %
26.10.2018 20:10 8,7 C 7,2 C 7,2 C 91 % 1003,8 hPa 0,0 l/m 0 min 0 min 0 W/m 12,9 km/h (3 Bft) 97,87 %
26.10.2018 20:12 8,7 C 7,2 C 7,2 C 91 % 1003,8 hPa 0,0 l/m 0 min 0 min 0 W/m 9,7 km/h (2 Bft) 100,00 %
26.10.2018 20:14 8,7 C 7,2 C 7,2 C 91 % 1003,8 hPa 0,0 l/m 0 min 0 min 0 W/m 6,4 km/h (2 Bft) 100,00 %
26.10.2018 20:16 8,6 C 7,2 C 7,2 C 91 % 1003,7 hPa 0,0 l/m 0 min 0 min 0 W/m 3,2 km/h (1 Bft) 100,00 %
26.10.2018 20:18 8,6 C 7,2 C 7,2 C 91 % 1003,7 hPa 0,0 l/m 0 min 0 min 0 W/m 6,4 km/h (2 Bft) 100,00 %
26.10.2018 20:20 8,6 C 7,2 C 7,2 C 91 % 1003,8 hPa 0,0 l/m 0 min 0 min 0 W/m 6,4 km/h (2 Bft) 100,00 %
26.10.2018 20:22 8,6 C 7,2 C 7,2 C 91 % 1003,8 hPa 0,0 l/m 0 min 2 min 0 W/m 0,0 km/h (0 Bft) 97,87 %
26.10.2018 20:24 8,6 C 7,2 C 7,2 C 91 % 1003,8 hPa 0,0 l/m 0 min 0 min 0 W/m 3,2 km/h (1 Bft) 100,00 %
26.10.2018 20:26 8,5 C 7,2 C 7,2 C 91 % 1003,7 hPa 0,0 l/m 0 min 0 min 0 W/m 3,2 km/h (1 Bft) 100,00 %
26.10.2018 20:28 8,5 C 7,2 C 7,2 C 91 % 1003,7 hPa 0,0 l/m 0 min 0 min 0 W/m 3,2 km/h (1 Bft) 100,00 %
26.10.2018 20:30 8,4 C 7,2 C 7,2 C 91 % 1003,7 hPa 0,0 l/m 0 min 0 min 0 W/m 3,2 km/h (1 Bft) 97,87 %
26.10.2018 20:32 8,4 C 7,2 C 7,2 C 91 % 1003,7 hPa 0,0 l/m 0 min 0 min 0 W/m 9,7 km/h (2 Bft) 100,00 %
26.10.2018 20:34 8,4 C 7,2 C 7,2 C 92 % 1003,7 hPa 0,0 l/m 0 min 0 min 0 W/m 3,2 km/h (1 Bft) 97,14 %
26.10.2018 20:38 8,4 C 7,2 C 7,2 C 92 % 1003,9 hPa 0,0 l/m 0 min 0 min 0 W/m 9,7 km/h (2 Bft) 98,11 %
26.10.2018 20:40 8,4 C 7,2 C 7,2 C 92 % 1003,8 hPa 0,0 l/m 0 min 0 min 0 W/m 3,2 km/h (1 Bft) 97,83 %
26.10.2018 20:42 8,4 C 7,2 C 7,2 C 92 % 1003,9 hPa 0,0 l/m 0 min 0 min 0 W/m 0,0 km/h (0 Bft) 95,74 %
26.10.2018 20:44 8,4 C 7,2 C 7,2 C 92 % 1003,9 hPa 0,0 l/m 0 min 0 min 0 W/m 3,2 km/h (1 Bft) 95,74 %
26.10.2018 20:46 8,4 C 7,2 C 7,2 C 92 % 1003,9 hPa 0,0 l/m 0 min 2 min 0 W/m 3,2 km/h (1 Bft) 97,92 %
26.10.2018 20:48 8,4 C 7,2 C 7,2 C 92 % 1003,9 hPa 0,0 l/m 0 min 2 min 0 W/m 3,2 km/h (1 Bft) 95,74 %
26.10.2018 20:50 8,4 C 7,2 C 7,2 C 92 % 1003,9 hPa 0,0 l/m 0 min 2 min 0 W/m 3,2 km/h (1 Bft) 95,74 %
26.10.2018 20:52 8,4 C 7,2 C 7,2 C 92 % 1003,8 hPa 0,0 l/m 0 min 2 min 0 W/m 0,0 km/h (0 Bft) 95,65 %
26.10.2018 20:54 8,4 C 7,2 C 7,2 C 92 % 1003,9 hPa 0,0 l/m 0 min 0 min 0 W/m 0,0 km/h (0 Bft) 93,62 %
26.10.2018 20:56 8,4 C 7,2 C 7,2 C 92 % 1003,9 hPa 0,0 l/m 0 min 2 min 0 W/m 3,2 km/h (1 Bft) 93,62 %
26.10.2018 20:58 8,4 C 7,2 C 7,2 C 92 % 1004,0 hPa 0,0 l/m 0 min 2 min 0 W/m 9,7 km/h (2 Bft) 95,74 %
26.10.2018 21:00 8,4 C 7,2 C 7,2 C 92 % 1003,9 hPa 0,0 l/m 0 min 2 min 0 W/m 9,7 km/h (2 Bft) 95,74 %
26.10.2018 21:02 8,4 C 7,2 C 7,2 C 93 % 1003,8 hPa 0,2 l/m 0 min 2 min 0 W/m 6,4 km/h (2 Bft) 95,74 %
26.10.2018 21:04 8,4 C 7,2 C 7,2 C 92 % 1004,0 hPa 0,0 l/m 0 min 2 min 0 W/m 6,4 km/h (2 Bft) 95,65 %
26.10.2018 21:08 8,4 C 7,2 C 7,2 C 93 % 1004,0 hPa 0,0 l/m 0 min 4 min 0 W/m 6,4 km/h (2 Bft) 96,34 %
26.10.2018 21:10 8,4 C 7,2 C 7,2 C 93 % 1004,1 hPa 0,0 l/m 0 min 2 min 0 W/m 3,2 km/h (1 Bft) 93,62 %
26.10.2018 21:12 8,4 C 7,2 C 7,2 C 93 % 1003,9 hPa 0,0 l/m 0 min 2 min 0 W/m 6,4 km/h (2 Bft) 95,74 %
26.10.2018 21:14 8,4 C 7,2 C 7,2 C 93 % 1004,0 hPa 0,0 l/m 0 min 2 min 0 W/m 6,4 km/h (2 Bft) 95,74 %
26.10.2018 21:16 8,4 C 7,2 C 7,2 C 93 % 1003,9 hPa 0,0 l/m 0 min 2 min 0 W/m 6,4 km/h (2 Bft) 95,74 %
26.10.2018 21:18 8,4 C 7,2 C 7,2 C 93 % 1003,8 hPa 0,0 l/m 0 min 2 min 0 W/m 6,4 km/h (2 Bft) 93,62 %
26.10.2018 21:20 8,4 C 7,2 C 7,2 C 93 % 1003,8 hPa 0,0 l/m 0 min 2 min 0 W/m 9,7 km/h (2 Bft) 94,83 %
26.10.2018 21:22 8,4 C 7,2 C 7,2 C 93 % 1003,8 hPa 0,0 l/m 0 min 2 min 0 W/m 3,2 km/h (1 Bft) 94,29 %
26.10.2018 21:24 8,4 C 7,2 C 7,2 C 93 % 1003,7 hPa 0,0 l/m 0 min 0 min 0 W/m 3,2 km/h (1 Bft) 97,87 %
26.10.2018 21:26 8,4 C 7,2 C 7,2 C 93 % 1003,8 hPa 0,0 l/m 0 min 0 min 0 W/m 3,2 km/h (1 Bft) 97,87 %
26.10.2018 21:28 8,4 C 7,2 C 7,2 C 93 % 1003,9 hPa 0,0 l/m 0 min 0 min 0 W/m 3,2 km/h (1 Bft) 93,62 %
26.10.2018 21:30 8,4 C 7,2 C 7,2 C 93 % 1003,8 hPa 0,0 l/m 0 min 0 min 0 W/m 9,7 km/h (2 Bft) 97,83 %
26.10.2018 21:32 8,4 C 7,2 C 7,2 C 93 % 1003,8 hPa 0,0 l/m 0 min 0 min 0 W/m 3,2 km/h (1 Bft) 97,92 %
26.10.2018 21:34 8,4 C 7,2 C 7,2 C 93 % 1003,8 hPa 0,0 l/m 0 min 0 min 0 W/m 0,0 km/h (0 Bft) 97,87 %
26.10.2018 21:38 8,3 C 7,2 C 7,2 C 93 % 1003,8 hPa 0,0 l/m 0 min 0 min 0 W/m 3,2 km/h (1 Bft) 95,74 %
26.10.2018 21:40 8,3 C 6,7 C 7,2 C 93 % 1003,9 hPa 0,0 l/m 0 min 0 min 0 W/m 3,2 km/h (1 Bft) 95,74 %
26.10.2018 21:42 8,3 C 6,7 C 7,2 C 93 % 1003,9 hPa 0,0 l/m 0 min 0 min 0 W/m 6,4 km/h (2 Bft) 97,83 %
26.10.2018 21:44 8,3 C 6,7 C 7,2 C 93 % 1004,0 hPa 0,0 l/m 0 min 0 min 0 W/m 6,4 km/h (2 Bft) 95,74 %
26.10.2018 21:46 8,3 C 6,7 C 7,2 C 93 % 1003,9 hPa 0,0 l/m 0 min 0 min 0 W/m 3,2 km/h (1 Bft) 95,74 %
26.10.2018 21:48 8,3 C 6,7 C 7,2 C 93 % 1003,9 hPa 0,0 l/m 0 min 0 min 0 W/m 0,0 km/h (0 Bft) 95,74 %
26.10.2018 21:50 8,3 C 6,7 C 7,2 C 93 % 1003,9 hPa 0,0 l/m 0 min 0 min 0 W/m 0,0 km/h (0 Bft) 96,55 %
26.10.2018 21:52 8,2 C 6,7 C 7,2 C 93 % 1004,0 hPa 0,0 l/m 0 min 0 min 0 W/m 0,0 km/h (0 Bft) 97,22 %
26.10.2018 21:54 8,2 C 6,7 C 7,2 C 93 % 1004,0 hPa 0,0 l/m 0 min 0 min 0 W/m 0,0 km/h (0 Bft) 95,65 %
26.10.2018 21:56 8,2 C 6,7 C 7,2 C 93 % 1004,1 hPa 0,0 l/m 0 min 0 min 0 W/m 0,0 km/h (0 Bft) 95,74 %
26.10.2018 21:58 8,2 C 6,7 C 7,2 C 93 % 1004,0 hPa 0,0 l/m 0 min 0 min 0 W/m 0,0 km/h (0 Bft) 95,74 %
26.10.2018 22:00 8,2 C 6,7 C 7,2 C 93 % 1004,1 hPa 0,0 l/m 0 min 0 min 0 W/m 9,7 km/h (2 Bft) 95,74 %
26.10.2018 22:02 8,1 C 6,7 C 7,2 C 93 % 1004,0 hPa 0,0 l/m 0 min 0 min 0 W/m 6,4 km/h (2 Bft) 97,87 %
26.10.2018 22:04 8,1 C 6,7 C 7,2 C 93 % 1004,1 hPa 0,0 l/m 0 min 0 min 0 W/m 6,4 km/h (2 Bft) 95,74 %
26.10.2018 22:08 8,1 C 6,7 C 7,2 C 93 % 1003,9 hPa 0,0 l/m 0 min 0 min 0 W/m 6,4 km/h (2 Bft) 97,85 %
26.10.2018 22:10 8,1 C 6,7 C 7,2 C 93 % 1003,8 hPa 0,0 l/m 0 min 0 min 0 W/m 6,4 km/h (2 Bft) 97,87 %
26.10.2018 22:12 8,1 C 6,7 C 7,2 C 93 % 1003,8 hPa 0,0 l/m 0 min 0 min 0 W/m 9,7 km/h (2 Bft) 95,74 %
26.10.2018 22:14 8,1 C 6,7 C 7,2 C 93 % 1003,9 hPa 0,0 l/m 0 min 0 min 0 W/m 3,2 km/h (1 Bft) 95,74 %
26.10.2018 22:16 8,0 C 6,7 C 7,2 C 93 % 1004,0 hPa 0,0 l/m 0 min 0 min 0 W/m 0,0 km/h (0 Bft) 95,65 %
26.10.2018 22:18 8,0 C 6,7 C 7,2 C 93 % 1004,0 hPa 0,0 l/m 0 min 0 min 0 W/m 6,4 km/h (2 Bft) 97,87 %
26.10.2018 22:20 8,0 C 6,7 C 7,2 C 93 % 1004,1 hPa 0,0 l/m 0 min 0 min 0 W/m 6,4 km/h (2 Bft) 96,61 %
26.10.2018 22:22 8,0 C 6,7 C 7,2 C 93 % 1004,1 hPa 0,0 l/m 0 min 0 min 0 W/m 6,4 km/h (2 Bft) 94,29 %
26.10.2018 22:24 7,9 C 6,7 C 7,2 C 93 % 1004,2 hPa 0,0 l/m 0 min 0 min 0 W/m 6,4 km/h (2 Bft) 95,74 %
26.10.2018 22:26 7,9 C 6,7 C 7,2 C 93 % 1004,2 hPa 0,0 l/m 0 min 0 min 0 W/m 9,7 km/h (2 Bft) 97,87 %
26.10.2018 22:28 7,9 C 6,7 C 7,2 C 93 % 1004,2 hPa 0,0 l/m 0 min 0 min 0 W/m 6,4 km/h (2 Bft) 97,83 %
26.10.2018 22:30 7,9 C 6,7 C 7,2 C 93 % 1004,2 hPa 0,0 l/m 0 min 0 min 0 W/m 6,4 km/h (2 Bft) 97,87 %
26.10.2018 22:32 7,9 C 6,7 C 7,2 C 93 % 1004,3 hPa 0,0 l/m 0 min 0 min 0 W/m 6,4 km/h (2 Bft) 97,87 %
26.10.2018 22:34 7,9 C 6,7 C 7,2 C 93 % 1004,2 hPa 0,0 l/m 0 min 0 min 0 W/m 9,7 km/h (2 Bft) 97,87 %
26.10.2018 22:38 7,9 C 6,7 C 7,2 C 93 % 1004,3 hPa 0,0 l/m 0 min 0 min 0 W/m 9,7 km/h (2 Bft) 95,74 %
26.10.2018 22:40 7,9 C 6,7 C 7,2 C 93 % 1004,3 hPa 0,0 l/m 0 min 0 min 0 W/m 12,9 km/h (3 Bft) 97,83 %
26.10.2018 22:42 7,8 C 6,7 C 7,2 C 93 % 1004,3 hPa 0,0 l/m 0 min 0 min 0 W/m 6,4 km/h (2 Bft) 97,87 %
26.10.2018 22:44 7,8 C 6,7 C 7,2 C 93 % 1004,3 hPa 0,0 l/m 0 min 0 min 0 W/m 9,7 km/h (2 Bft) 95,74 %
26.10.2018 22:46 7,8 C 6,7 C 7,2 C 93 % 1004,3 hPa 0,0 l/m 0 min 0 min 0 W/m 12,9 km/h (3 Bft) 100,00 %
26.10.2018 22:48 7,8 C 6,7 C 7,2 C 93 % 1004,3 hPa 0,0 l/m 0 min 0 min 0 W/m 6,4 km/h (2 Bft) 100,00 %
26.10.2018 22:50 7,8 C 6,7 C 7,2 C 93 % 1004,3 hPa 0,0 l/m 0 min 0 min 0 W/m 9,7 km/h (2 Bft) 100,00 %
26.10.2018 22:52 7,7 C 6,7 C 7,2 C 93 % 1004,3 hPa 0,0 l/m 0 min 0 min 0 W/m 6,4 km/h (2 Bft) 100,00 %
26.10.2018 22:54 7,7 C 6,7 C 7,2 C 93 % 1004,4 hPa 0,0 l/m 0 min 0 min 0 W/m 6,4 km/h (2 Bft) 100,00 %
26.10.2018 22:56 7,7 C 6,7 C 7,2 C 93 % 1004,4 hPa 0,0 l/m 0 min 0 min 0 W/m 9,7 km/h (2 Bft) 100,00 %
26.10.2018 22:58 7,7 C 6,7 C 7,2 C 93 % 1004,4 hPa 0,0 l/m 0 min 0 min 0 W/m 6,4 km/h (2 Bft) 100,00 %
26.10.2018 23:00 7,7 C 6,7 C 7,2 C 93 % 1004,3 hPa 0,0 l/m 0 min 0 min 0 W/m 6,4 km/h (2 Bft) 100,00 %
26.10.2018 23:02 7,7 C 6,7 C 7,2 C 93 % 1004,4 hPa 0,0 l/m 0 min 0 min 0 W/m 9,7 km/h (2 Bft) 100,00 %
26.10.2018 23:04 7,7 C 6,7 C 7,2 C 93 % 1004,4 hPa 0,0 l/m 0 min 0 min 0 W/m 3,2 km/h (1 Bft) 97,87 %
26.10.2018 23:08 7,7 C 6,7 C 7,2 C 93 % 1004,4 hPa 0,0 l/m 0 min 0 min 0 W/m 9,7 km/h (2 Bft) 98,94 %
26.10.2018 23:10 7,6 C 6,7 C 7,2 C 93 % 1004,5 hPa 0,0 l/m 0 min 0 min 0 W/m 12,9 km/h (3 Bft) 97,87 %
26.10.2018 23:12 7,6 C 6,7 C 7,2 C 93 % 1004,5 hPa 0,0 l/m 0 min 0 min 0 W/m 6,4 km/h (2 Bft) 100,00 %
26.10.2018 23:14 7,6 C 6,1 C 7,2 C 93 % 1004,3 hPa 0,0 l/m 0 min 0 min 0 W/m 6,4 km/h (2 Bft) 100,00 %
26.10.2018 23:16 7,6 C 6,1 C 7,2 C 93 % 1004,4 hPa 0,0 l/m 0 min 0 min 0 W/m 6,4 km/h (2 Bft) 97,92 %
26.10.2018 23:18 7,6 C 6,1 C 7,2 C 93 % 1004,4 hPa 0,0 l/m 0 min 0 min 0 W/m 9,7 km/h (2 Bft) 100,00 %
26.10.2018 23:20 7,6 C 6,1 C 7,2 C 92 % 1004,4 hPa 0,0 l/m 0 min 0 min 0 W/m 12,9 km/h (3 Bft) 100,00 %
26.10.2018 23:22 7,6 C 6,1 C 7,2 C 92 % 1004,4 hPa 0,0 l/m 0 min 0 min 0 W/m 6,4 km/h (2 Bft) 100,00 %
26.10.2018 23:24 7,5 C 6,1 C 7,2 C 92 % 1004,4 hPa 0,0 l/m 0 min 0 min 0 W/m 9,7 km/h (2 Bft) 100,00 %
26.10.2018 23:26 7,5 C 6,1 C 6,7 C 92 % 1004,3 hPa 0,0 l/m 0 min 0 min 0 W/m 9,7 km/h (2 Bft) 100,00 %
26.10.2018 23:28 7,5 C 6,1 C 6,7 C 93 % 1004,3 hPa 0,0 l/m 0 min 0 min 0 W/m 3,2 km/h (1 Bft) 100,00 %
26.10.2018 23:30 7,5 C 6,1 C 6,7 C 92 % 1004,3 hPa 0,0 l/m 0 min 0 min 0 W/m 6,4 km/h (2 Bft) 100,00 %
26.10.2018 23:32 7,4 C 6,1 C 6,7 C 92 % 1004,3 hPa 0,0 l/m 0 min 0 min 0 W/m 3,2 km/h (1 Bft) 97,87 %
26.10.2018 23:34 7,4 C 6,1 C 6,7 C 92 % 1004,4 hPa 0,0 l/m 0 min 0 min 0 W/m 6,4 km/h (2 Bft) 100,00 %
26.10.2018 23:38 7,4 C 6,1 C 6,7 C 92 % 1004,3 hPa 0,0 l/m 0 min 0 min 0 W/m 9,7 km/h (2 Bft) 98,92 %
26.10.2018 23:40 7,4 C 6,1 C 6,7 C 92 % 1004,4 hPa 0,0 l/m 0 min 0 min 0 W/m 6,4 km/h (2 Bft) 97,87 %
26.10.2018 23:42 7,3 C 6,1 C 6,7 C 92 % 1004,4 hPa 0,0 l/m 0 min 0 min 0 W/m 9,7 km/h (2 Bft) 97,87 %
26.10.2018 23:44 7,3 C 6,1 C 6,7 C 92 % 1004,4 hPa 0,0 l/m 0 min 0 min 0 W/m 6,4 km/h (2 Bft) 97,87 %
26.10.2018 23:46 7,3 C 6,1 C 6,7 C 92 % 1004,4 hPa 0,0 l/m 0 min 0 min 0 W/m 3,2 km/h (1 Bft) 97,87 %
26.10.2018 23:48 7,3 C 6,1 C 6,7 C 92 % 1004,4 hPa 0,0 l/m 0 min 0 min 0 W/m 9,7 km/h (2 Bft) 97,87 %
26.10.2018 23:50 7,2 C 6,1 C 6,7 C 92 % 1004,5 hPa 0,0 l/m 0 min 0 min 0 W/m 3,2 km/h (1 Bft) 95,65 %
26.10.2018 23:52 7,2 C 5,6 C 6,7 C 92 % 1004,4 hPa 0,0 l/m 0 min 0 min 0 W/m 3,2 km/h (1 Bft) 97,87 %
26.10.2018 23:54 7,2 C 5,6 C 6,7 C 92 % 1004,4 hPa 0,0 l/m 0 min 0 min 0 W/m 6,4 km/h (2 Bft) 97,87 %
26.10.2018 23:56 7,2 C 6,1 C 6,7 C 92 % 1004,4 hPa 0,0 l/m 0 min 0 min 0 W/m 9,7 km/h (2 Bft) 93,62 %
26.10.2018 23:58 7,2 C 6,1 C 6,7 C 92 % 1004,4 hPa 0,0 l/m 0 min 0 min 0 W/m 6,4 km/h (2 Bft) 97,87 %
_ Min-Zeit 23:50 23:52 23:26 17:12 18:08 - - - - 01:58 09:52
Minimum _ 7,2 C 5,6 C 6,7 C 79 % 1003,1 hPa - - - - 0,0 km/h (0 Bft) 89,36 %
_ Max-Zeit 16:22 12:16 00:00 21:02 00:00 12:20 16:08 18:08 12:14 19:50 00:00
Maximum _ 11,6 C 11,7 C 10,6 C 93 % 1014,0 hPa 0,2 l/m 4 min 4 min 205 W/m 29,0 km/h
W (5 Bft)
100,00 %
Durchschnitt _ 10,1 C 9,4 C 9,3 C 87 % 1007,1 hPa #0,8 l/m #20 min. #2:18 h 70 W/m 9,6 km/h (2 Bft) 97,57 %
© 2018 W. Hausmann